
Distance (Route):
Temperature : -49.9°C
Humidity : 0%
Pressure : 74.1hPa| Receiver | Frames | First received | Last received |
|---|---|---|---|
| AA1-15 | 575 | 2026-09-01 00:10:23 | 2026-09-01 01:02:43 |
| Receiver | Date | Latitude | Longitude | Direction | Speed | Altitude | Climb | Temperature | Humidity | Pressure | Voltage | Killtimer | Uptime | BKT | XDATA |
|---|---|---|---|---|---|---|---|---|---|---|---|---|---|---|---|
| AA1-15 | 2026-09-01 01:02:43 | 55.90924 | 19.95131 | 287° | 385km/h | 14324m | -171m/s | -49.9°C | 0% | 74.1hPa | 2.2V | 00:00:00 | 00:00:00 | 00:00:00 | |
| AA1-15 | 2026-09-01 01:02:32 | 55.90705 | 19.96695 | 278° | 303km/h | 159087m | -148.2m/s | -50.1°C | 0% | 72.4hPa | 2.2V | 00:00:00 | 00:00:00 | 00:00:00 | |
| AA1-15 | 2026-09-01 01:02:21 | 55.90619 | 19.98178 | 282° | 296km/h | 159087m | -152.7m/s | -50.9°C | 0% | 70.8hPa | 2.2V | 00:00:00 | 00:00:00 | 00:00:00 | |
| AA1-15 | 2026-09-01 01:02:10 | 55.90205 | 19.99851 | 289° | 303km/h | 19681m | -170.2m/s | -51.3°C | 0% | 69.3hPa | 2.2V | 00:00:00 | 00:00:00 | 00:00:00 | |
| AA1-15 | 2026-09-01 01:01:57 | 55.90211 | 20.01046 | 288° | 226km/h | 159087m | -150.8m/s | -51.2°C | 0% | 67.6hPa | 2.2V | 00:00:00 | 00:00:00 | 00:00:00 | |
| AA1-15 | 2026-09-01 01:01:46 | 55.90112 | 20.01932 | 294° | 206km/h | 159087m | -151.2m/s | -52°C | 0% | 66.2hPa | 2.2V | 00:00:00 | 00:00:00 | 00:00:00 | |
| AA1-15 | 2026-09-01 01:01:35 | 55.89931 | 20.02727 | 301° | 214km/h | 159087m | -155.4m/s | -51.7°C | 0% | 64.7hPa | 2.2V | 00:00:00 | 00:00:00 | 00:00:00 | |
| AA1-15 | 2026-09-01 01:01:24 | 55.89615 | 20.03567 | 306° | 214km/h | 26306m | -152.6m/s | -51.6°C | 0% | 63.4hPa | 2.2V | 00:00:00 | 00:00:00 | 00:00:00 | |
| AA1-15 | 2026-09-01 01:01:13 | 55.89257 | 20.04323 | 311° | 228km/h | 27869m | -149.5m/s | -51.1°C | 0% | 62hPa | 2.2V | 00:00:00 | 00:00:00 | 00:00:00 | |
| AA1-15 | 2026-09-01 01:01:01 | 55.88806 | 20.05216 | 315° | 316km/h | 29551m | -175.2m/s | -50.7°C | 0% | 60.5hPa | 2.2V | 00:00:00 | 00:00:00 | 00:00:00 | |
| AA1-15 | 2026-09-01 00:59:58 | 54.95259 | 19.26290 | 271° | 13km/h | 2436m | 8.8m/s | -53°C | 0% | 52.9hPa | 2.2V | 00:00:00 | 00:00:00 | 00:00:00 | |
| AA1-15 | 2026-09-01 00:59:46 | 54.95231 | 19.26365 | 274° | 15km/h | 2338m | 10.3m/s | -52.6°C | 0% | 51.6hPa | 2.2V | 00:00:00 | 00:00:00 | 00:00:00 | |
| AA1-15 | 2026-09-01 00:59:36 | 54.95218 | 19.26439 | 277° | 15km/h | 2185m | 9.8m/s | -52.6°C | 0% | 50.5hPa | 2.2V | 00:00:00 | 00:00:00 | 00:00:00 | |
| AA1-15 | 2026-09-01 00:59:25 | 54.95223 | 19.26505 | 277° | 18km/h | 2078m | 10.2m/s | -52.4°C | 0% | 49.4hPa | 2.2V | 00:00:00 | 00:00:00 | 00:00:00 | |
| AA1-15 | 2026-09-01 00:59:03 | 54.95242 | 19.26643 | 275° | 13km/h | 1970m | 10.2m/s | -52.2°C | 0% | 46.2hPa | 2.2V | 00:00:00 | 00:00:00 | 00:00:00 | |
| AA1-15 | 2026-09-01 00:59:00 | 54.95227 | 19.26645 | 275° | 13km/h | 1977m | 10.2m/s | -51.9°C | 0% | 45.5hPa | 2.2V | 00:00:00 | 00:00:00 | 00:00:00 | |
| AA1-15 | 2026-09-01 00:58:57 | 54.95226 | 19.26654 | 272° | 13km/h | 1971m | 10.8m/s | -51.9°C | 0% | 45.3hPa | 2.2V | 00:00:00 | 00:00:00 | 00:00:00 | |
| AA1-15 | 2026-09-01 00:58:54 | 54.95226 | 19.26675 | 280° | 15km/h | 1953m | 9.6m/s | -52°C | 0% | 44.7hPa | 2.2V | 00:00:00 | 00:00:00 | 00:00:00 | |
| AA1-15 | 2026-09-01 00:58:48 | 54.95229 | 19.26718 | 276° | 18km/h | 1885m | 9.8m/s | -52.6°C | 0% | 43.9hPa | 2.2V | 00:00:00 | 00:00:00 | 00:00:00 | |
| AA1-15 | 2026-09-01 00:58:39 | 54.95205 | 19.26776 | 270° | 15km/h | 1791m | 7.2m/s | -52.9°C | 0% | 42.9hPa | 2.2V | 00:00:00 | 00:00:00 | 00:00:00 | |
| AA1-15 | 2026-09-01 00:58:36 | 54.95202 | 19.26798 | 271° | 13km/h | 1759m | 8.4m/s | -53.2°C | 0% | 42.5hPa | 2.2V | 00:00:00 | 00:00:00 | 00:00:00 | |
| AA1-15 | 2026-09-01 00:58:33 | 54.95196 | 19.26832 | 272° | 16km/h | 1751m | 8.6m/s | -53.4°C | 0% | 42.1hPa | 2.2V | 00:00:00 | 00:00:00 | 00:00:00 | |
| AA1-15 | 2026-09-01 00:58:30 | 54.95178 | 19.26888 | 264° | 13km/h | 1756m | 9.2m/s | -53.3°C | 0% | 41.7hPa | 2.2V | 00:00:00 | 00:00:00 | 00:00:00 | |
| AA1-15 | 2026-09-01 00:58:29 | 54.95174 | 19.26906 | 267° | 13km/h | 1747m | 8.1m/s | -53.1°C | 0% | 41.6hPa | 2.2V | 00:00:00 | 00:00:00 | 00:00:00 | |
| AA1-15 | 2026-09-01 00:57:29 | 55.07817 | 19.73779 | 0° | 0km/h | 159087m | 0m/s | -53°C | 0% | 35.8hPa | 2.2V | 00:00:00 | 00:00:00 | 00:00:00 | |
| AA1-15 | 2026-09-01 00:57:19 | 55.07817 | 19.73779 | 0° | 0km/h | 159087m | 0m/s | -53.1°C | 0% | 34.9hPa | 2.2V | 00:00:00 | 00:00:00 | 00:00:00 | |
| AA1-15 | 2026-09-01 00:56:47 | 55.07817 | 19.73779 | 0° | 0km/h | 159087m | 0m/s | -53°C | 0% | 31.8hPa | 2.2V | 00:00:00 | 00:00:00 | 00:00:00 | |
| AA1-15 | 2026-09-01 00:56:37 | 55.07817 | 19.73779 | 0° | 0km/h | 159087m | 0m/s | -52.1°C | 0% | 31hPa | 2.2V | 00:00:00 | 00:00:00 | 00:00:00 | |
| AA1-15 | 2026-09-01 00:56:25 | 55.08115 | 19.73159 | 130° | 183km/h | 159087m | 4.1m/s | -52.3°C | 0% | 30.1hPa | 2.2V | 00:00:00 | 00:00:00 | 00:00:00 | |
| AA1-15 | 2026-09-01 00:56:14 | 55.08241 | 19.72926 | 276° | 13km/h | 2673m | 9.1m/s | -52.1°C | 0% | 29hPa | 2.2V | 00:00:00 | 00:00:00 | 00:00:00 | |
| AA1-15 | 2026-09-01 00:56:03 | 55.08240 | 19.72983 | 270° | 13km/h | 2564m | 8.9m/s | -51.3°C | 0% | 28.1hPa | 2.2V | 00:00:00 | 00:00:00 | 00:00:00 | |
| AA1-15 | 2026-09-01 00:55:51 | 55.08252 | 19.73057 | 255° | 13km/h | 2513m | 9.2m/s | -50°C | 0% | 27.1hPa | 2.2V | 00:00:00 | 00:00:00 | 00:00:00 | |
| AA1-15 | 2026-09-01 00:55:40 | 55.08226 | 19.73123 | 273° | 18km/h | 2400m | 10.1m/s | -50°C | 0% | 26.3hPa | 2.2V | 00:00:00 | 00:00:00 | 00:00:00 | |
| AA1-15 | 2026-09-01 00:55:29 | 55.08236 | 19.73193 | 266° | 15km/h | 2298m | 11.1m/s | -50.4°C | 0% | 25.6hPa | 2.2V | 00:00:00 | 00:00:00 | 00:00:00 | |
| AA1-15 | 2026-09-01 00:55:18 | 55.08234 | 19.73261 | 270° | 13km/h | 2193m | 8.3m/s | -50.4°C | 0% | 24.7hPa | 2.2V | 00:00:00 | 00:00:00 | 00:00:00 | |
| AA1-15 | 2026-09-01 00:55:07 | 55.08249 | 19.73346 | 271° | 13km/h | 2086m | 8.9m/s | -50.9°C | 0% | 23.9hPa | 2.2V | 00:00:00 | 00:00:00 | 00:00:00 | |
| AA1-15 | 2026-09-01 00:54:49 | 55.08248 | 19.73474 | 281° | 18km/h | 1926m | 12m/s | -51.4°C | 0% | 22.6hPa | 2.2V | 00:00:00 | 00:00:00 | 00:00:00 | |
| AA1-15 | 2026-09-01 00:54:48 | 55.08248 | 19.73481 | 266° | 13km/h | 1917m | 8.9m/s | -51.4°C | 0% | 22.5hPa | 2.2V | 00:00:00 | 00:00:00 | 00:00:00 | |
| AA1-15 | 2026-09-01 00:54:46 | 55.08247 | 19.73489 | 278° | 16km/h | 1913m | 7.5m/s | -51.3°C | 0% | 22.5hPa | 2.2V | 00:00:00 | 00:00:00 | 00:00:00 | |
| AA1-15 | 2026-09-01 00:54:43 | 55.08250 | 19.73511 | 265° | 13km/h | 1905m | 8.2m/s | -51°C | 0% | 22.3hPa | 2.2V | 00:00:00 | 00:00:00 | 00:00:00 | |
| AA1-15 | 2026-09-01 00:54:42 | 55.08250 | 19.73519 | 265° | 15km/h | 1902m | 7.7m/s | -51°C | 0% | 22.2hPa | 2.2V | 00:00:00 | 00:00:00 | 00:00:00 | |
| AA1-15 | 2026-09-01 00:54:40 | 55.08257 | 19.73543 | 273° | 13km/h | 1894m | 8.8m/s | -51°C | 0% | 22hPa | 2.2V | 00:00:00 | 00:00:00 | 00:00:00 | |
| AA1-15 | 2026-09-01 00:54:38 | 55.08247 | 19.73539 | 307° | 16km/h | 1883m | 8.8m/s | -51°C | 0% | 21.9hPa | 2.2V | 00:00:00 | 00:00:00 | 00:00:00 | |
| AA1-15 | 2026-09-01 00:54:36 | 55.08248 | 19.73531 | 290° | 15km/h | 1865m | 12.5m/s | -51.1°C | 0% | 21.9hPa | 2.2V | 00:00:00 | 00:00:00 | 00:00:00 | |
| AA1-15 | 2026-09-01 00:54:35 | 55.08249 | 19.73525 | 238° | 7km/h | 1838m | 10.5m/s | -51.1°C | 0% | 21.8hPa | 2.2V | 00:00:00 | 00:00:00 | 00:00:00 | |
| AA1-15 | 2026-09-01 00:54:32 | 55.08257 | 19.73552 | 269° | 16km/h | 1806m | 7.8m/s | -51.2°C | 0% | 21.6hPa | 2.2V | 00:00:00 | 00:00:00 | 00:00:00 | |
| AA1-15 | 2026-09-01 00:54:31 | 55.08261 | 19.73573 | 273° | 13km/h | 1805m | 8.5m/s | -51.2°C | 0% | 21.5hPa | 2.2V | 00:00:00 | 00:00:00 | 00:00:00 | |
| AA1-15 | 2026-09-01 00:54:30 | 55.08265 | 19.73586 | 270° | 13km/h | 1804m | 9.2m/s | -51.2°C | 0% | 21.4hPa | 2.2V | 00:00:00 | 00:00:00 | 00:00:00 | |
| AA1-15 | 2026-09-01 00:54:28 | 55.08271 | 19.73613 | 278° | 20km/h | 1800m | 11.7m/s | -51.1°C | 0% | 21.3hPa | 2.2V | 00:00:00 | 00:00:00 | 00:00:00 | |
| AA1-15 | 2026-09-01 00:54:27 | 55.08269 | 19.73618 | 270° | 15km/h | 1795m | 10m/s | -51.1°C | 0% | 21.2hPa | 2.2V | 00:00:00 | 00:00:00 | 00:00:00 | |
| AA1-15 | 2026-09-01 00:54:25 | 55.08266 | 19.73622 | 266° | 13km/h | 1791m | 8.9m/s | -51.1°C | 0% | 21.2hPa | 2.2V | 00:00:00 | 00:00:00 | 00:00:00 | |
| AA1-15 | 2026-09-01 00:54:23 | 55.08263 | 19.73635 | 271° | 18km/h | 1777m | 8.7m/s | -51°C | 0% | 21hPa | 2.2V | 00:00:00 | 00:00:00 | 00:00:00 | |
| AA1-15 | 2026-09-01 00:54:17 | 55.08244 | 19.73672 | 289° | 13km/h | 1732m | 9.5m/s | -51.1°C | 0% | 20.6hPa | 2.2V | 00:00:00 | 00:00:00 | 00:00:00 | |
| AA1-15 | 2026-09-01 00:54:09 | 55.08281 | 19.73860 | 240° | 100km/h | 1675m | 8.7m/s | -51.1°C | 0% | 20.2hPa | 2.2V | 00:00:00 | 00:00:00 | 00:00:00 | |
| AA1-15 | 2026-09-01 00:54:01 | 55.08423 | 19.74060 | 193° | 99km/h | 1609m | 8.4m/s | -50.9°C | 0% | 19.8hPa | 2.2V | 00:00:00 | 00:00:00 | 00:00:00 | |
| AA1-15 | 2026-09-01 00:53:50 | 55.08663 | 19.73922 | 126° | 91km/h | 1512m | 10.2m/s | -50.2°C | 0% | 19.2hPa | 2.2V | 00:00:00 | 00:00:00 | 00:00:00 | |
| AA1-15 | 2026-09-01 00:53:43 | 55.08708 | 19.73638 | 86° | 93km/h | 1453m | 8.9m/s | -49.8°C | 0% | 18.8hPa | 2.2V | 00:00:00 | 00:00:00 | 00:00:00 | |
| AA1-15 | 2026-09-01 00:53:33 | 55.08541 | 19.73297 | 15° | 97km/h | 1346m | 10.3m/s | -49.3°C | 0% | 18.2hPa | 2.2V | 00:00:00 | 00:00:00 | 00:00:00 | |
| AA1-15 | 2026-09-01 00:53:30 | 55.08489 | 19.73272 | 6° | 99km/h | 1331m | 9.6m/s | -49.2°C | 0% | 18hPa | 2.2V | 00:00:00 | 00:00:00 | 00:00:00 | |
| AA1-15 | 2026-09-01 00:53:29 | 55.08467 | 19.73269 | 0° | 104km/h | 1324m | 10.2m/s | -49.3°C | 0% | 17.9hPa | 2.2V | 00:00:00 | 00:00:00 | 00:00:00 | |
| AA1-15 | 2026-09-01 00:53:28 | 55.08445 | 19.73271 | 360° | 93km/h | 1320m | 7.7m/s | -49.3°C | 0% | 17.9hPa | 2.2V | 00:00:00 | 00:00:00 | 00:00:00 | |
| AA1-15 | 2026-09-01 00:53:26 | 55.08326 | 19.73271 | 2° | 100km/h | 1271m | 11m/s | -49.4°C | 0% | 17.5hPa | 2.2V | 00:00:00 | 00:00:00 | 00:00:00 | |
| AA1-15 | 2026-09-01 00:53:24 | 55.08302 | 19.73274 | 359° | 93km/h | 1262m | 9.9m/s | -49.5°C | 0% | 17.4hPa | 2.2V | 00:00:00 | 00:00:00 | 00:00:00 | |
| AA1-15 | 2026-09-01 00:53:21 | 55.08279 | 19.73273 | 0° | 97km/h | 1255m | 8.6m/s | -49.4°C | 0% | 17.4hPa | 2.2V | 00:00:00 | 00:00:00 | 00:00:00 | |
| AA1-15 | 2026-09-01 00:53:19 | 55.08233 | 19.73276 | 360° | 95km/h | 1237m | 9.3m/s | -49.4°C | 0% | 17.3hPa | 2.2V | 00:00:00 | 00:00:00 | 00:00:00 | |
| AA1-15 | 2026-09-01 00:53:18 | 55.08210 | 19.73279 | 0° | 95km/h | 1230m | 8.2m/s | -49.4°C | 0% | 17.2hPa | 2.2V | 00:00:00 | 00:00:00 | 00:00:00 | |
| AA1-15 | 2026-09-01 00:53:15 | 55.08116 | 19.73278 | 0° | 100km/h | 1187m | 8.5m/s | -49.5°C | 0% | 17hPa | 2.2V | 00:00:00 | 00:00:00 | 00:00:00 | |
| AA1-15 | 2026-09-01 00:53:14 | 55.08065 | 19.73273 | 0° | 97km/h | 1164m | 8.5m/s | -49.6°C | 0% | 16.9hPa | 2.2V | 00:00:00 | 00:00:00 | 00:00:00 | |
| AA1-15 | 2026-09-01 00:53:12 | 55.08041 | 19.73276 | 360° | 93km/h | 1158m | 8.1m/s | -49.7°C | 0% | 16.8hPa | 2.2V | 00:00:00 | 00:00:00 | 00:00:00 | |
| AA1-15 | 2026-09-01 00:53:09 | 55.07995 | 19.73266 | 26° | 99km/h | 1142m | 8.5m/s | -49.8°C | 0% | 16.7hPa | 2.2V | 00:00:00 | 00:00:00 | 00:00:00 | |
| AA1-15 | 2026-09-01 00:53:08 | 55.07977 | 19.73244 | 43° | 100km/h | 1135m | 8.7m/s | -49.9°C | 0% | 16.7hPa | 2.2V | 00:00:00 | 00:00:00 | 00:00:00 | |
| AA1-15 | 2026-09-01 00:53:05 | 55.07955 | 19.73124 | 99° | 97km/h | 1110m | 8.5m/s | -49.9°C | 0% | 16.5hPa | 2.2V | 00:00:00 | 00:00:00 | 00:00:00 | |
| AA1-15 | 2026-09-01 00:53:04 | 55.08022 | 19.73019 | 172° | 97km/h | 1093m | 8.4m/s | -49.9°C | 0% | 16.4hPa | 2.2V | 00:00:00 | 00:00:00 | 00:00:00 | |
| AA1-15 | 2026-09-01 00:53:01 | 55.08046 | 19.73020 | 189° | 91km/h | 1085m | 8.3m/s | -50°C | 0% | 16.3hPa | 2.2V | 00:00:00 | 00:00:00 | 00:00:00 | |
| AA1-15 | 2026-09-01 00:52:59 | 55.08069 | 19.73036 | 207° | 99km/h | 1077m | 8.4m/s | -50°C | 0% | 16.2hPa | 2.2V | 00:00:00 | 00:00:00 | 00:00:00 | |
| AA1-15 | 2026-09-01 00:52:56 | 55.08103 | 19.73130 | 262° | 97km/h | 1040m | 7.6m/s | -49.9°C | 0% | 16.1hPa | 2.2V | 00:00:00 | 00:00:00 | 00:00:00 | |
| AA1-15 | 2026-09-01 00:52:54 | 55.08109 | 19.73204 | 269° | 95km/h | 1006m | 8.2m/s | -49.6°C | 0% | 16hPa | 2.2V | 00:00:00 | 00:00:00 | 00:00:00 | |
| AA1-15 | 2026-09-01 00:52:53 | 55.08102 | 19.73339 | 271° | 95km/h | 962m | 10m/s | -49.4°C | 0% | 15.8hPa | 2.2V | 00:00:00 | 00:00:00 | 00:00:00 | |
| AA1-15 | 2026-09-01 00:52:52 | 55.08101 | 19.73380 | 270° | 93km/h | 949m | 9m/s | -49.4°C | 0% | 15.8hPa | 2.2V | 00:00:00 | 00:00:00 | 00:00:00 | |
| AA1-15 | 2026-09-01 00:52:51 | 55.08102 | 19.73423 | 269° | 97km/h | 943m | 8.3m/s | -49.3°C | 0% | 15.7hPa | 2.2V | 00:00:00 | 00:00:00 | 00:00:00 | |
| AA1-15 | 2026-09-01 00:52:48 | 55.08103 | 19.73466 | 270° | 99km/h | 939m | 9.4m/s | -49.1°C | 0% | 15.7hPa | 2.2V | 00:00:00 | 00:00:00 | 00:00:00 | |
| AA1-15 | 2026-09-01 00:52:47 | 55.08106 | 19.73551 | 270° | 95km/h | 928m | 7.3m/s | -48.9°C | 0% | 15.5hPa | 2.2V | 00:00:00 | 00:00:00 | 00:00:00 | |
| AA1-15 | 2026-09-01 00:52:46 | 55.08104 | 19.73592 | 270° | 99km/h | 920m | 8.4m/s | -48.9°C | 0% | 15.5hPa | 2.2V | 00:00:00 | 00:00:00 | 00:00:00 | |
| AA1-15 | 2026-09-01 00:52:43 | 55.08089 | 19.73712 | 272° | 95km/h | 872m | 8.6m/s | -48.8°C | 0% | 15.4hPa | 2.2V | 00:00:00 | 00:00:00 | 00:00:00 | |
| AA1-15 | 2026-09-01 00:52:40 | 55.08081 | 19.73800 | 259° | 97km/h | 852m | 7.6m/s | -48.7°C | 0% | 15.2hPa | 2.2V | 00:00:00 | 00:00:00 | 00:00:00 | |
| AA1-15 | 2026-09-01 00:52:37 | 55.08098 | 19.73920 | 239° | 93km/h | 826m | 7m/s | -48.5°C | 0% | 15.1hPa | 2.2V | 00:00:00 | 00:00:00 | 00:00:00 | |
| AA1-15 | 2026-09-01 00:52:36 | 55.08106 | 19.73954 | 228° | 97km/h | 818m | 7.7m/s | -48.4°C | 0% | 15.1hPa | 2.2V | 00:00:00 | 00:00:00 | 00:00:00 | |
| AA1-15 | 2026-09-01 00:52:27 | 54.92197 | 19.89619 | 22° | 47km/h | 159087m | 16.6m/s | -48.4°C | 0% | 14.6hPa | 2.2V | 00:00:00 | 00:00:00 | 00:00:00 | |
| AA1-15 | 2026-09-01 00:51:55 | 54.92095 | 19.89731 | 297° | 15km/h | 2407m | 9m/s | -47.1°C | 0% | 12.8hPa | 2.2V | 00:00:00 | 00:00:00 | 00:00:00 | |
| AA1-15 | 2026-09-01 00:50:47 | 54.92108 | 19.90161 | 242° | 15km/h | 1924m | 6.8m/s | -44.6°C | 0% | 10.4hPa | 2.2V | 00:00:00 | 00:00:00 | 00:00:00 | |
| AA1-15 | 2026-09-01 00:50:43 | 54.92116 | 19.90204 | 274° | 16km/h | 1897m | 8.7m/s | -44.6°C | 0% | 10.4hPa | 2.2V | 00:00:00 | 00:00:00 | 00:00:00 | |
| AA1-15 | 2026-09-01 00:50:02 | 54.92312 | 19.90747 | 194° | 99km/h | 1575m | 8.7m/s | -46.1°C | 0% | 10.9hPa | 2.2V | 00:00:00 | 00:00:00 | 00:00:00 | |
| AA1-15 | 2026-09-01 00:49:57 | 54.92495 | 19.90797 | 163° | 97km/h | 1663m | 9.3m/s | -46.2°C | 0% | 10.9hPa | 2.2V | 00:00:00 | 00:00:00 | 00:00:00 | |
| AA1-15 | 2026-09-01 00:49:46 | 54.92632 | 19.90454 | 98° | 97km/h | 1507m | 8.2m/s | -46.4°C | 0% | 11.1hPa | 2.2V | 00:00:00 | 00:00:00 | 00:00:00 | |
| AA1-15 | 2026-09-01 00:49:39 | 54.92571 | 19.90164 | 55° | 95km/h | 1409m | 8.2m/s | -46.4°C | 0% | 11.1hPa | 2.2V | 00:00:00 | 00:00:00 | 00:00:00 | |
| AA1-15 | 2026-09-01 00:49:35 | 54.92502 | 19.90041 | 30° | 97km/h | 1358m | 8.6m/s | -46.5°C | 0% | 11.2hPa | 2.2V | 00:00:00 | 00:00:00 | 00:00:00 | |
| AA1-15 | 2026-09-01 00:49:14 | 54.91963 | 19.89965 | 0° | 95km/h | 1158m | 8m/s | -46.7°C | 0% | 11.4hPa | 2.2V | 00:00:00 | 00:00:00 | 00:00:00 | |
| AA1-15 | 2026-09-01 00:49:09 | 54.91841 | 19.89930 | 42° | 97km/h | 1091m | 8.8m/s | -46.7°C | 0% | 11.5hPa | 2.2V | 00:00:00 | 00:00:00 | 00:00:00 | |
| AA1-15 | 2026-09-01 00:49:07 | 54.91812 | 19.89855 | 80° | 99km/h | 1074m | 8.5m/s | -46.7°C | 0% | 11.5hPa | 2.2V | 00:00:00 | 00:00:00 | 00:00:00 | |
| AA1-15 | 2026-09-01 00:48:59 | 54.91945 | 19.89733 | 226° | 93km/h | 948m | 9.9m/s | -46.7°C | 0% | 11.6hPa | 2.2V | 00:00:00 | 00:00:00 | 00:00:00 | |
| AA1-15 | 2026-09-01 00:48:40 | 54.91653 | 19.90760 | 255° | 95km/h | 429m | 8.5m/s | -46.8°C | 0% | 11.9hPa | 2.2V | 00:00:00 | 00:00:00 | 00:00:00 | |
| AA1-15 | 2026-09-01 00:47:58 | 54.88322 | 20.04056 | 358° | 11km/h | 2783m | 8.1m/s | -47.1°C | 0% | 12.4hPa | 2.2V | 00:00:00 | 00:00:00 | 00:00:00 | |
| AA1-15 | 2026-09-01 00:47:36 | 54.88222 | 20.04062 | 1° | 16km/h | 2602m | 8.5m/s | -47.4°C | 0% | 12.8hPa | 2.2V | 00:00:00 | 00:00:00 | 00:00:00 | |
| AA1-15 | 2026-09-01 00:47:26 | 54.88197 | 20.04053 | 7° | 15km/h | 2541m | 9.7m/s | -47.5°C | 0% | 12.9hPa | 2.2V | 00:00:00 | 00:00:00 | 00:00:00 | |
| AA1-15 | 2026-09-01 00:47:14 | 54.88240 | 20.04140 | 354° | 11km/h | 2570m | 8.5m/s | -47.5°C | 0% | 13.1hPa | 2.2V | 00:00:00 | 00:00:00 | 00:00:00 | |
| AA1-15 | 2026-09-01 00:46:53 | 54.88162 | 20.04173 | 358° | 18km/h | 2365m | 9.2m/s | -47.3°C | 0% | 13.5hPa | 2.2V | 00:00:00 | 00:00:00 | 00:00:00 | |
| AA1-15 | 2026-09-01 00:46:42 | 54.88098 | 20.04154 | 358° | 11km/h | 2308m | 7.7m/s | -47.4°C | 0% | 13.7hPa | 2.2V | 00:00:00 | 00:00:00 | 00:00:00 | |
| AA1-15 | 2026-09-01 00:46:22 | 54.87901 | 20.04042 | 0° | 20km/h | 2074m | 8.3m/s | -47.8°C | 0% | 14hPa | 2.2V | 00:00:00 | 00:00:00 | 00:00:00 | |
| AA1-15 | 2026-09-01 00:46:09 | 54.87700 | 20.04021 | 351° | 95km/h | 1965m | 8.4m/s | -48.1°C | 0% | 14.2hPa | 2.2V | 00:00:00 | 00:00:00 | 00:00:00 | |
| AA1-15 | 2026-09-01 00:46:06 | 54.87623 | 20.04060 | 346° | 93km/h | 1932m | 8.3m/s | -48.1°C | 0% | 14.3hPa | 2.2V | 00:00:00 | 00:00:00 | 00:00:00 | |
| AA1-15 | 2026-09-01 00:46:04 | 54.87594 | 20.04087 | 343° | 100km/h | 1918m | 8.7m/s | -48.1°C | 0% | 14.3hPa | 2.2V | 00:00:00 | 00:00:00 | 00:00:00 | |
| AA1-15 | 2026-09-01 00:45:58 | 54.87515 | 20.04190 | 335° | 97km/h | 1889m | 8.5m/s | -48.1°C | 0% | 14.4hPa | 2.2V | 00:00:00 | 00:00:00 | 00:00:00 | |
| AA1-15 | 2026-09-01 00:45:56 | 54.87449 | 20.04248 | 331° | 97km/h | 1854m | 8.7m/s | -48.2°C | 0% | 14.4hPa | 2.2V | 00:00:00 | 00:00:00 | 00:00:00 | |
| AA1-15 | 2026-09-01 00:45:51 | 54.87375 | 20.04346 | 325° | 99km/h | 1818m | 8.3m/s | -48.1°C | 0% | 14.5hPa | 2.2V | 00:00:00 | 00:00:00 | 00:00:00 | |
| AA1-15 | 2026-09-01 00:45:46 | 54.87265 | 20.04514 | 311° | 95km/h | 1762m | 8.1m/s | -47.9°C | 0% | 14.6hPa | 2.2V | 00:00:00 | 00:00:00 | 00:00:00 | |
| AA1-15 | 2026-09-01 00:45:44 | 54.87247 | 20.04545 | 314° | 99km/h | 1754m | 8.3m/s | -47.9°C | 0% | 14.6hPa | 2.2V | 00:00:00 | 00:00:00 | 00:00:00 | |
| AA1-15 | 2026-09-01 00:45:40 | 54.87190 | 20.04682 | 306° | 95km/h | 1730m | 8.6m/s | -47.8°C | 0% | 14.7hPa | 2.2V | 00:00:00 | 00:00:00 | 00:00:00 | |
| AA1-15 | 2026-09-01 00:45:35 | 54.87154 | 20.05038 | 295° | 99km/h | 1699m | 8.7m/s | -47.6°C | 0% | 14.8hPa | 2.2V | 00:00:00 | 00:00:00 | 00:00:00 | |
| AA1-15 | 2026-09-01 00:45:30 | 54.87142 | 20.05127 | 289° | 93km/h | 1677m | 9.5m/s | -47.6°C | 0% | 14.8hPa | 2.2V | 00:00:00 | 00:00:00 | 00:00:00 | |
| AA1-15 | 2026-09-01 00:45:20 | 54.87088 | 20.05561 | 276° | 97km/h | 1547m | 8m/s | -47.4°C | 0% | 15hPa | 2.2V | 00:00:00 | 00:00:00 | 00:00:00 | |
| AA1-15 | 2026-09-01 00:45:16 | 54.87077 | 20.05760 | 268° | 95km/h | 1512m | 7.8m/s | -47.6°C | 0% | 15hPa | 2.2V | 00:00:00 | 00:00:00 | 00:00:00 | |
| AA1-15 | 2026-09-01 00:45:14 | 54.87084 | 20.05798 | 264° | 97km/h | 1505m | 7m/s | -47.7°C | 0% | 15.1hPa | 2.2V | 00:00:00 | 00:00:00 | 00:00:00 | |
| AA1-15 | 2026-09-01 00:45:07 | 54.87143 | 20.06259 | 249° | 93km/h | 1422m | 8.2m/s | -47.9°C | 0% | 15.2hPa | 2.2V | 00:00:00 | 00:00:00 | 00:00:00 | |
| AA1-15 | 2026-09-01 00:44:59 | 54.87164 | 20.06370 | 241° | 97km/h | 1385m | 8.2m/s | -47.9°C | 0% | 15.3hPa | 2.2V | 00:00:00 | 00:00:00 | 00:00:00 | |
| AA1-15 | 2026-09-01 00:44:56 | 54.87188 | 20.06472 | 236° | 95km/h | 1351m | 8m/s | -48.1°C | 0% | 15.3hPa | 2.2V | 00:00:00 | 00:00:00 | 00:00:00 | |
| AA1-15 | 2026-09-01 00:44:52 | 54.87246 | 20.06628 | 228° | 99km/h | 1292m | 7.8m/s | -48.3°C | 0% | 15.4hPa | 2.2V | 00:00:00 | 00:00:00 | 00:00:00 | |
| AA1-15 | 2026-09-01 00:44:49 | 54.87275 | 20.06687 | 225° | 95km/h | 1273m | 8m/s | -48.3°C | 0% | 15.4hPa | 2.2V | 00:00:00 | 00:00:00 | 00:00:00 | |
| AA1-15 | 2026-09-01 00:44:48 | 54.87289 | 20.06714 | 224° | 100km/h | 1265m | 8m/s | -48.4°C | 0% | 15.5hPa | 2.2V | 00:00:00 | 00:00:00 | 00:00:00 | |
| AA1-15 | 2026-09-01 00:44:47 | 54.87320 | 20.06765 | 222° | 95km/h | 1248m | 8.8m/s | -48.4°C | 0% | 15.5hPa | 2.2V | 00:00:00 | 00:00:00 | 00:00:00 | |
| AA1-15 | 2026-09-01 00:44:46 | 54.87339 | 20.06791 | 219° | 99km/h | 1241m | 8.3m/s | -48.4°C | 0% | 15.5hPa | 2.2V | 00:00:00 | 00:00:00 | 00:00:00 | |
| AA1-15 | 2026-09-01 00:44:41 | 54.87423 | 20.06895 | 214° | 93km/h | 1223m | 7.6m/s | -48.4°C | 0% | 15.6hPa | 2.2V | 00:00:00 | 00:00:00 | 00:00:00 | |
| AA1-15 | 2026-09-01 00:44:40 | 54.87340 | 20.06951 | 211° | 97km/h | 1329m | 8m/s | -48.5°C | 0% | 15.6hPa | 2.2V | 00:00:00 | 00:00:00 | 00:00:00 | |
| AA1-15 | 2026-09-01 00:44:35 | 55.44627 | 8.97161 | 0° | 0km/h | 159087m | 0m/s | -48.6°C | 0% | 15.7hPa | 2.2V | 00:00:00 | 00:00:00 | 00:00:00 | |
| AA1-15 | 2026-09-01 00:43:52 | 55.44627 | 8.97161 | 0° | 0km/h | 159087m | 0m/s | -49.8°C | 0% | 16.3hPa | 2.2V | 00:00:00 | 00:00:00 | 00:00:00 | |
| AA1-15 | 2026-09-01 00:43:42 | 54.71108 | 20.33654 | 0° | 0km/h | 159087m | 0m/s | -49.9°C | 0% | 16.5hPa | 2.2V | 00:00:00 | 00:00:00 | 00:00:00 | |
| AA1-15 | 2026-09-01 00:43:31 | 54.71108 | 20.33654 | 0° | 0km/h | 159087m | 0m/s | -49.9°C | 0% | 16.6hPa | 2.2V | 00:00:00 | 00:00:00 | 00:00:00 | |
| AA1-15 | 2026-09-01 00:43:21 | 54.71113 | 20.33638 | 121° | 44km/h | 159087m | 7.8m/s | -49.8°C | 0% | 16.8hPa | 2.2V | 00:00:00 | 00:00:00 | 00:00:00 | |
| AA1-15 | 2026-09-01 00:43:10 | 54.71170 | 20.33489 | 262° | 15km/h | 2660m | 9.1m/s | -49.6°C | 0% | 17hPa | 2.2V | 00:00:00 | 00:00:00 | 00:00:00 | |
| AA1-15 | 2026-09-01 00:42:59 | 54.71181 | 20.33621 | 265° | 22km/h | 2554m | 10.7m/s | -49.7°C | 0% | 17.2hPa | 2.2V | 00:00:00 | 00:00:00 | 00:00:00 | |
| AA1-15 | 2026-09-01 00:42:49 | 54.71197 | 20.33740 | 268° | 16km/h | 2344m | 8.6m/s | -49.7°C | 0% | 17.6hPa | 2.2V | 00:00:00 | 00:00:00 | 00:00:00 | |
| AA1-15 | 2026-09-01 00:42:31 | 54.71208 | 20.33771 | 266° | 16km/h | 2271m | 8.9m/s | -49.7°C | 0% | 17.6hPa | 2.2V | 00:00:00 | 00:00:00 | 00:00:00 | |
| AA1-15 | 2026-09-01 00:42:20 | 54.71196 | 20.33855 | 268° | 15km/h | 2188m | 8.2m/s | -49.6°C | 0% | 17.8hPa | 2.2V | 00:00:00 | 00:00:00 | 00:00:00 | |
| AA1-15 | 2026-09-01 00:42:10 | 54.71197 | 20.33982 | 270° | 15km/h | 2103m | 8.5m/s | -49.7°C | 0% | 18hPa | 2.2V | 00:00:00 | 00:00:00 | 00:00:00 | |
| AA1-15 | 2026-09-01 00:41:59 | 54.71145 | 20.33947 | 269° | 13km/h | 159087m | 8.2m/s | -49.8°C | 0% | 18.2hPa | 2.2V | 00:00:00 | 00:00:00 | 00:00:00 | |
| AA1-15 | 2026-09-01 00:41:49 | 54.71128 | 20.34115 | 267° | 16km/h | 1993m | 7.9m/s | -50°C | 0% | 18.4hPa | 2.2V | 00:00:00 | 00:00:00 | 00:00:00 | |
| AA1-15 | 2026-09-01 00:41:45 | 54.71130 | 20.34137 | 273° | 15km/h | 1958m | 8.5m/s | -50.1°C | 0% | 18.5hPa | 2.2V | 00:00:00 | 00:00:00 | 00:00:00 | |
| AA1-15 | 2026-09-01 00:41:44 | 54.71133 | 20.34155 | 275° | 13km/h | 1930m | 8.6m/s | -50.1°C | 0% | 18.5hPa | 2.2V | 00:00:00 | 00:00:00 | 00:00:00 | |
| AA1-15 | 2026-09-01 00:41:43 | 54.71136 | 20.34164 | 248° | 16km/h | 1916m | 8.6m/s | -50.1°C | 0% | 18.6hPa | 2.2V | 00:00:00 | 00:00:00 | 00:00:00 | |
| AA1-15 | 2026-09-01 00:41:42 | 54.71139 | 20.34175 | 278° | 16km/h | 1900m | 8.7m/s | -50.1°C | 0% | 18.6hPa | 2.2V | 00:00:00 | 00:00:00 | 00:00:00 | |
| AA1-15 | 2026-09-01 00:41:40 | 54.71143 | 20.34196 | 274° | 15km/h | 1867m | 8.9m/s | -50.2°C | 0% | 18.6hPa | 2.2V | 00:00:00 | 00:00:00 | 00:00:00 | |
| AA1-15 | 2026-09-01 00:41:38 | 54.71149 | 20.34216 | 262° | 13km/h | 1834m | 6.9m/s | -50.3°C | 0% | 18.6hPa | 2.2V | 00:00:00 | 00:00:00 | 00:00:00 | |
| AA1-15 | 2026-09-01 00:41:37 | 54.71152 | 20.34222 | 276° | 18km/h | 1818m | 9.9m/s | -50.3°C | 0% | 18.7hPa | 2.2V | 00:00:00 | 00:00:00 | 00:00:00 | |
| AA1-15 | 2026-09-01 00:41:35 | 54.71157 | 20.34232 | 268° | 15km/h | 1792m | 8.9m/s | -50.3°C | 0% | 18.7hPa | 2.2V | 00:00:00 | 00:00:00 | 00:00:00 | |
| AA1-15 | 2026-09-01 00:41:33 | 54.71164 | 20.34226 | 266° | 13km/h | 1801m | 7.5m/s | -50.3°C | 0% | 18.7hPa | 2.2V | 00:00:00 | 00:00:00 | 00:00:00 | |
| AA1-15 | 2026-09-01 00:41:31 | 54.71186 | 20.34200 | 266° | 16km/h | 1840m | 9.8m/s | -50.3°C | 0% | 18.8hPa | 2.2V | 00:00:00 | 00:00:00 | 00:00:00 | |
| AA1-15 | 2026-09-01 00:41:29 | 54.71193 | 20.34192 | 263° | 18km/h | 1850m | 8.2m/s | -50.4°C | 0% | 18.8hPa | 2.2V | 00:00:00 | 00:00:00 | 00:00:00 | |
| AA1-15 | 2026-09-01 00:41:27 | 54.71196 | 20.34201 | 267° | 15km/h | 1836m | 6m/s | -50.3°C | 0% | 18.9hPa | 2.2V | 00:00:00 | 00:00:00 | 00:00:00 | |
| AA1-15 | 2026-09-01 00:41:24 | 54.71198 | 20.34223 | 267° | 13km/h | 1799m | 7.2m/s | -50.4°C | 0% | 18.9hPa | 2.2V | 00:00:00 | 00:00:00 | 00:00:00 | |
| AA1-15 | 2026-09-01 00:41:23 | 54.71198 | 20.34231 | 275° | 16km/h | 1785m | 8.6m/s | -50.5°C | 0% | 18.9hPa | 2.2V | 00:00:00 | 00:00:00 | 00:00:00 | |
| AA1-15 | 2026-09-01 00:41:21 | 54.71200 | 20.34248 | 271° | 16km/h | 1757m | 9.5m/s | -50.6°C | 0% | 19hPa | 2.2V | 00:00:00 | 00:00:00 | 00:00:00 | |
| AA1-15 | 2026-09-01 00:41:19 | 54.71201 | 20.34261 | 276° | 20km/h | 1727m | 10.1m/s | -50.6°C | 0% | 19.1hPa | 2.2V | 00:00:00 | 00:00:00 | 00:00:00 | |
| AA1-15 | 2026-09-01 00:41:18 | 54.71199 | 20.34273 | 274° | 22km/h | 1706m | 9.6m/s | -50.6°C | 0% | 19.1hPa | 2.2V | 00:00:00 | 00:00:00 | 00:00:00 | |
| AA1-15 | 2026-09-01 00:41:16 | 54.71196 | 20.34295 | 270° | 15km/h | 1650m | 9.7m/s | -50.6°C | 0% | 19.1hPa | 2.2V | 00:00:00 | 00:00:00 | 00:00:00 | |
| AA1-15 | 2026-09-01 00:41:13 | 54.71188 | 20.34310 | 276° | 18km/h | 1615m | 8.2m/s | -50.6°C | 0% | 19.2hPa | 2.2V | 00:00:00 | 00:00:00 | 00:00:00 | |
| AA1-15 | 2026-09-01 00:41:12 | 54.71189 | 20.34315 | 259° | 16km/h | 1608m | 8.8m/s | -50.7°C | 0% | 19.2hPa | 2.2V | 00:00:00 | 00:00:00 | 00:00:00 | |
| AA1-15 | 2026-09-01 00:41:10 | 54.71193 | 20.34326 | 271° | 16km/h | 1572m | 9.2m/s | -50.7°C | 0% | 19.2hPa | 2.2V | 00:00:00 | 00:00:00 | 00:00:00 | |
| AA1-15 | 2026-09-01 00:41:08 | 54.71193 | 20.34312 | 271° | 13km/h | 1572m | 7.6m/s | -50.8°C | 0% | 19.2hPa | 2.2V | 00:00:00 | 00:00:00 | 00:00:00 | |
| AA1-15 | 2026-09-01 00:41:07 | 54.71191 | 20.34332 | 327° | 20km/h | 1561m | 6.7m/s | -50.9°C | 0% | 19.3hPa | 2.2V | 00:00:00 | 00:00:00 | 00:00:00 | |
| AA1-15 | 2026-09-01 00:41:05 | 54.71183 | 20.34379 | 268° | 104km/h | 1548m | 10.4m/s | -50.9°C | 0% | 19.3hPa | 2.2V | 00:00:00 | 00:00:00 | 00:00:00 | |
| AA1-15 | 2026-09-01 00:40:59 | 54.71224 | 20.34624 | 230° | 86km/h | 1485m | 6.9m/s | -50.8°C | 0% | 19.4hPa | 2.2V | 00:00:00 | 00:00:00 | 00:00:00 | |
| AA1-15 | 2026-09-01 00:40:58 | 54.71244 | 20.34658 | 226° | 93km/h | 1473m | 8.2m/s | -50.8°C | 0% | 19.5hPa | 2.2V | 00:00:00 | 00:00:00 | 00:00:00 | |
| AA1-15 | 2026-09-01 00:40:54 | 54.71355 | 20.34802 | 197° | 106km/h | 1439m | 4.9m/s | -50.8°C | 0% | 19.5hPa | 2.2V | 00:00:00 | 00:00:00 | 00:00:00 | |
| AA1-15 | 2026-09-01 00:40:50 | 54.71474 | 20.34861 | 176° | 97km/h | 1436m | 7.2m/s | -50.8°C | 0% | 19.6hPa | 2.2V | 00:00:00 | 00:00:00 | 00:00:00 | |
| AA1-15 | 2026-09-01 00:40:46 | 54.71576 | 20.34795 | 151° | 95km/h | 1462m | 7.2m/s | -50.8°C | 0% | 19.7hPa | 2.2V | 00:00:00 | 00:00:00 | 00:00:00 | |
| AA1-15 | 2026-09-01 00:40:43 | 54.71615 | 20.34684 | 131° | 95km/h | 1440m | 7.8m/s | -50.9°C | 0% | 19.8hPa | 2.2V | 00:00:00 | 00:00:00 | 00:00:00 | |
| AA1-15 | 2026-09-01 00:40:40 | 54.71623 | 20.34569 | 115° | 93km/h | 1419m | 10m/s | -51°C | 0% | 19.9hPa | 2.2V | 00:00:00 | 00:00:00 | 00:00:00 | |
| AA1-15 | 2026-09-01 00:40:34 | 54.71638 | 20.34273 | 75° | 99km/h | 1302m | 6m/s | -51°C | 0% | 20hPa | 2.2V | 00:00:00 | 00:00:00 | 00:00:00 | |
| AA1-15 | 2026-09-01 00:40:21 | 54.71462 | 20.33878 | 1° | 93km/h | 1338m | 6.2m/s | -51°C | 0% | 20.2hPa | 2.2V | 00:00:00 | 00:00:00 | 00:00:00 | |
| AA1-15 | 2026-09-01 00:40:04 | 54.71070 | 20.33968 | 339° | 100km/h | 1288m | 58.6m/s | -51°C | 0% | 20.6hPa | 2.2V | 00:00:00 | 00:00:00 | 00:00:00 | |
| AA1-15 | 2026-09-01 00:39:58 | 54.70955 | 20.33816 | 36° | 131km/h | 1046m | 6.2m/s | -50.9°C | 0% | 20.7hPa | 2.2V | 00:00:00 | 00:00:00 | 00:00:00 | |
| AA1-15 | 2026-09-01 00:39:55 | 54.70930 | 20.33703 | 134° | 95km/h | 1031m | 11.3m/s | -50.8°C | 0% | 20.8hPa | 2.2V | 00:00:00 | 00:00:00 | 00:00:00 | |
| AA1-15 | 2026-09-01 00:39:54 | 54.70947 | 20.33673 | 155° | 97km/h | 1028m | 9.6m/s | -50.8°C | 0% | 20.8hPa | 2.2V | 00:00:00 | 00:00:00 | 00:00:00 | |
| AA1-15 | 2026-09-01 00:39:52 | 54.70995 | 20.33651 | 190° | 91km/h | 1024m | 9.1m/s | -50.8°C | 0% | 20.8hPa | 2.2V | 00:00:00 | 00:00:00 | 00:00:00 | |
| AA1-15 | 2026-09-01 00:39:48 | 54.71063 | 20.33785 | 268° | 104km/h | 998m | 13m/s | -50.9°C | 0% | 20.9hPa | 2.2V | 00:00:00 | 00:00:00 | 00:00:00 | |
| AA1-15 | 2026-09-01 00:39:44 | 54.71083 | 20.33938 | 269° | 97km/h | 966m | 7.8m/s | -50.9°C | 0% | 21hPa | 2.2V | 00:00:00 | 00:00:00 | 00:00:00 | |
| AA1-15 | 2026-09-01 00:39:40 | 54.71080 | 20.34074 | 263° | 100km/h | 953m | 8.2m/s | -50.9°C | 0% | 21.1hPa | 2.2V | 00:00:00 | 00:00:00 | 00:00:00 | |
| AA1-15 | 2026-09-01 00:39:39 | 54.71088 | 20.34116 | 265° | 100km/h | 944m | 8.9m/s | -50.9°C | 0% | 21.1hPa | 2.2V | 00:00:00 | 00:00:00 | 00:00:00 | |
| AA1-15 | 2026-09-01 00:39:36 | 54.71440 | 20.34349 | 273° | 97km/h | 402m | 7.6m/s | -51°C | 0% | 21.2hPa | 2.2V | 00:00:00 | 00:00:00 | 00:00:00 | |
| AA1-15 | 2026-09-01 00:39:20 | 54.67855 | 20.46819 | 82° | 40km/h | 159087m | 0.2m/s | -51.1°C | 0% | 21.5hPa | 2.2V | 00:00:00 | 00:00:00 | 00:00:00 | |
| AA1-15 | 2026-09-01 00:39:09 | 54.67838 | 20.46632 | 335° | 15km/h | 2796m | 9.7m/s | -51°C | 0% | 21.7hPa | 2.2V | 00:00:00 | 00:00:00 | 00:00:00 | |
| AA1-15 | 2026-09-01 00:38:58 | 54.67858 | 20.46629 | 2° | 15km/h | 2790m | 8.1m/s | -51°C | 0% | 21.9hPa | 2.2V | 00:00:00 | 00:00:00 | 00:00:00 | |
| AA1-15 | 2026-09-01 00:38:47 | 54.67820 | 20.46601 | 2° | 15km/h | 2715m | 8.3m/s | -51.1°C | 0% | 22.2hPa | 2.2V | 00:00:00 | 00:00:00 | 00:00:00 | |
| AA1-15 | 2026-09-01 00:38:36 | 54.67818 | 20.46465 | 8° | 13km/h | 2797m | 7.1m/s | -51.5°C | 0% | 22.4hPa | 2.2V | 00:00:00 | 00:00:00 | 00:00:00 | |
| AA1-15 | 2026-09-01 00:38:25 | 54.67835 | 20.46361 | 5° | 16km/h | 2869m | 6.8m/s | -51.4°C | 0% | 22.6hPa | 2.2V | 00:00:00 | 00:00:00 | 00:00:00 | |
| AA1-15 | 2026-09-01 00:38:15 | 54.92131 | 19.89542 | 0° | 0km/h | 159087m | 0m/s | -51.5°C | 0% | 22.9hPa | 2.2V | 00:00:00 | 00:00:00 | 00:00:00 | |
| AA1-15 | 2026-09-01 00:38:05 | 54.92131 | 19.89542 | 0° | 0km/h | 159087m | 0m/s | -51.3°C | 0% | 23.1hPa | 2.2V | 00:00:00 | 00:00:00 | 00:00:00 | |
| AA1-15 | 2026-09-01 00:37:53 | 54.92131 | 19.89542 | 0° | 0km/h | 159087m | 0m/s | -51.2°C | 0% | 23.4hPa | 2.2V | 00:00:00 | 00:00:00 | 00:00:00 | |
| AA1-15 | 2026-09-01 00:37:22 | 54.92131 | 19.89542 | 0° | 0km/h | 159087m | 0m/s | -51.1°C | 0% | 24.1hPa | 2.2V | 00:00:00 | 00:00:00 | 00:00:00 | |
| AA1-15 | 2026-09-01 00:37:10 | 54.92131 | 19.89542 | 0° | 0km/h | 159087m | 0m/s | -51.2°C | 0% | 24.4hPa | 2.2V | 00:00:00 | 00:00:00 | 00:00:00 | |
| AA1-15 | 2026-09-01 00:36:59 | 54.92131 | 19.89542 | 0° | 0km/h | 159087m | 0m/s | -51.1°C | 0% | 24.6hPa | 2.2V | 00:00:00 | 00:00:00 | 00:00:00 | |
| AA1-15 | 2026-09-01 00:36:48 | 54.92131 | 19.89542 | 0° | 0km/h | 159087m | 0m/s | -51°C | 0% | 24.9hPa | 2.2V | 00:00:00 | 00:00:00 | 00:00:00 | |
| AA1-15 | 2026-09-01 00:36:38 | 54.92131 | 19.89542 | 0° | 0km/h | 159087m | 0m/s | -51°C | 0% | 25.1hPa | 2.2V | 00:00:00 | 00:00:00 | 00:00:00 | |
| AA1-15 | 2026-09-01 00:36:28 | 54.92131 | 19.89542 | 0° | 0km/h | 159087m | 0m/s | -50.9°C | 0% | 25.4hPa | 2.2V | 00:00:00 | 00:00:00 | 00:00:00 | |
| AA1-15 | 2026-09-01 00:36:05 | 54.92131 | 19.89542 | 0° | 0km/h | 159087m | 0m/s | -50.5°C | 0% | 25.9hPa | 2.2V | 00:00:00 | 00:00:00 | 00:00:00 | |
| AA1-15 | 2026-09-01 00:35:44 | 54.92131 | 19.89542 | 0° | 0km/h | 159087m | 0m/s | -50.4°C | 0% | 26.4hPa | 2.2V | 00:00:00 | 00:00:00 | 00:00:00 | |
| AA1-15 | 2026-09-01 00:35:22 | 54.92131 | 19.89542 | 0° | 0km/h | 159087m | 0m/s | -50.5°C | 0% | 27hPa | 2.2V | 00:00:00 | 00:00:00 | 00:00:00 | |
| AA1-15 | 2026-09-01 00:35:00 | 54.92131 | 19.89542 | 0° | 0km/h | 159087m | 0m/s | -50.8°C | 0% | 27.5hPa | 2.2V | 00:00:00 | 00:00:00 | 00:00:00 | |
| AA1-15 | 2026-09-01 00:34:50 | 54.92131 | 19.89542 | 0° | 0km/h | 159087m | 0m/s | -50.8°C | 0% | 27.8hPa | 2.2V | 00:00:00 | 00:00:00 | 00:00:00 | |
| AA1-15 | 2026-09-01 00:34:39 | 54.92131 | 19.89542 | 0° | 0km/h | 159087m | 0m/s | -51.5°C | 0% | 28hPa | 2.2V | 00:00:00 | 00:00:00 | 00:00:00 | |
| AA1-15 | 2026-09-01 00:34:28 | 54.92153 | 19.89580 | 225° | 31km/h | 159087m | 12.3m/s | -51.6°C | 0% | 28.3hPa | 2.2V | 00:00:00 | 00:00:00 | 00:00:00 | |
| AA1-15 | 2026-09-01 00:34:18 | 54.92185 | 19.89669 | 268° | 13km/h | 2733m | 8m/s | -51.8°C | 0% | 28.6hPa | 2.2V | 00:00:00 | 00:00:00 | 00:00:00 | |
| AA1-15 | 2026-09-01 00:34:08 | 54.92179 | 19.89723 | 269° | 13km/h | 2616m | 8.2m/s | -51.9°C | 0% | 28.8hPa | 2.2V | 00:00:00 | 00:00:00 | 00:00:00 | |
| AA1-15 | 2026-09-01 00:33:56 | 54.90252 | 19.88887 | 271° | 13km/h | 159087m | 7.8m/s | -51.9°C | 0% | 29.1hPa | 2.2V | 00:00:00 | 00:00:00 | 00:00:00 | |
| AA1-15 | 2026-09-01 00:33:45 | 54.90217 | 19.88976 | 0° | 0km/h | 159087m | 0m/s | -52.1°C | 0% | 29.4hPa | 2.2V | 00:00:00 | 00:00:00 | 00:00:00 | |
| AA1-15 | 2026-09-01 00:33:33 | 54.92238 | 19.89912 | 276° | 15km/h | 159087m | 8.5m/s | -52.2°C | 0% | 29.7hPa | 2.2V | 00:00:00 | 00:00:00 | 00:00:00 | |
| AA1-15 | 2026-09-01 00:33:22 | 54.92187 | 19.89942 | 267° | 16km/h | 2496m | 8m/s | -52.2°C | 0% | 30hPa | 2.2V | 00:00:00 | 00:00:00 | 00:00:00 | |
| AA1-15 | 2026-09-01 00:33:11 | 54.92191 | 19.90007 | 274° | 13km/h | 2432m | 8m/s | -52.2°C | 0% | 30.4hPa | 2.2V | 00:00:00 | 00:00:00 | 00:00:00 | |
| AA1-15 | 2026-09-01 00:33:00 | 54.92161 | 19.90083 | 273° | 13km/h | 2322m | 8.3m/s | -52.6°C | 0% | 30.6hPa | 2.2V | 00:00:00 | 00:00:00 | 00:00:00 | |
| AA1-15 | 2026-09-01 00:32:49 | 54.92159 | 19.90166 | 275° | 13km/h | 2236m | 7.9m/s | -53.1°C | 0% | 31hPa | 2.2V | 00:00:00 | 00:00:00 | 00:00:00 | |
| AA1-15 | 2026-09-01 00:32:13 | 54.92140 | 19.90355 | 270° | 93km/h | 1966m | 8.3m/s | -53.4°C | 0% | 32hPa | 2.2V | 00:00:00 | 00:00:00 | 00:00:00 | |
| AA1-15 | 2026-09-01 00:32:12 | 54.92137 | 19.90433 | 253° | 97km/h | 1961m | 7.9m/s | -53.4°C | 0% | 32hPa | 2.2V | 00:00:00 | 00:00:00 | 00:00:00 | |
| AA1-15 | 2026-09-01 00:32:09 | 54.92158 | 19.90517 | 240° | 97km/h | 1958m | 7.9m/s | -53.5°C | 0% | 32.1hPa | 2.2V | 00:00:00 | 00:00:00 | 00:00:00 | |
| AA1-15 | 2026-09-01 00:32:08 | 54.92172 | 19.90556 | 238° | 93km/h | 1951m | 7.4m/s | -53.5°C | 0% | 32.1hPa | 2.2V | 00:00:00 | 00:00:00 | 00:00:00 | |
| AA1-15 | 2026-09-01 00:32:07 | 54.92188 | 19.90598 | 233° | 95km/h | 1943m | 8.3m/s | -53.5°C | 0% | 32.1hPa | 2.2V | 00:00:00 | 00:00:00 | 00:00:00 | |
| AA1-15 | 2026-09-01 00:32:06 | 54.92208 | 19.90662 | 220° | 91km/h | 1913m | 19.8m/s | -53.5°C | 0% | 32.2hPa | 2.2V | 00:00:00 | 00:00:00 | 00:00:00 | |
| AA1-15 | 2026-09-01 00:32:04 | 54.92196 | 19.90674 | 211° | 97km/h | 1871m | 16.4m/s | -53.5°C | 0% | 32.2hPa | 2.2V | 00:00:00 | 00:00:00 | 00:00:00 | |
| AA1-15 | 2026-09-01 00:32:03 | 54.92209 | 19.90692 | 206° | 111km/h | 1846m | 9.6m/s | -53.4°C | 0% | 32.3hPa | 2.2V | 00:00:00 | 00:00:00 | 00:00:00 | |
| AA1-15 | 2026-09-01 00:32:02 | 54.92241 | 19.90715 | 200° | 164km/h | 1837m | 6.5m/s | -53.4°C | 0% | 32.3hPa | 2.2V | 00:00:00 | 00:00:00 | 00:00:00 | |
| AA1-15 | 2026-09-01 00:31:57 | 54.92417 | 19.90763 | 171° | 95km/h | 1786m | 8.8m/s | -53.3°C | 0% | 32.5hPa | 2.2V | 00:00:00 | 00:00:00 | 00:00:00 | |
| AA1-15 | 2026-09-01 00:31:54 | 54.92501 | 19.90700 | 145° | 95km/h | 1722m | 8.8m/s | -53.4°C | 0% | 32.6hPa | 2.2V | 00:00:00 | 00:00:00 | 00:00:00 | |
| AA1-15 | 2026-09-01 00:31:52 | 54.92520 | 19.90674 | 140° | 100km/h | 1707m | 7.9m/s | -53.4°C | 0% | 32.6hPa | 2.2V | 00:00:00 | 00:00:00 | 00:00:00 | |
| AA1-15 | 2026-09-01 00:31:51 | 54.92537 | 19.90644 | 131° | 93km/h | 1692m | 7.7m/s | -53.4°C | 0% | 32.6hPa | 2.2V | 00:00:00 | 00:00:00 | 00:00:00 | |
| AA1-15 | 2026-09-01 00:31:50 | 54.92563 | 19.90577 | 119° | 97km/h | 1659m | 7.7m/s | -53.4°C | 0% | 32.7hPa | 2.2V | 00:00:00 | 00:00:00 | 00:00:00 | |
| AA1-15 | 2026-09-01 00:31:49 | 54.92574 | 19.90538 | 113° | 97km/h | 1640m | 8.5m/s | -53.5°C | 0% | 32.7hPa | 2.2V | 00:00:00 | 00:00:00 | 00:00:00 | |
| AA1-15 | 2026-09-01 00:31:48 | 54.92582 | 19.90497 | 109° | 97km/h | 1620m | 8.4m/s | -53.5°C | 0% | 32.8hPa | 2.2V | 00:00:00 | 00:00:00 | 00:00:00 | |
| AA1-15 | 2026-09-01 00:31:46 | 54.92589 | 19.90455 | 104° | 97km/h | 1597m | 7.6m/s | -53.5°C | 0% | 32.8hPa | 2.2V | 00:00:00 | 00:00:00 | 00:00:00 | |
| AA1-15 | 2026-09-01 00:31:42 | 54.92562 | 19.90261 | 78° | 99km/h | 1504m | 9.1m/s | -53.6°C | 0% | 32.9hPa | 2.2V | 00:00:00 | 00:00:00 | 00:00:00 | |
| AA1-15 | 2026-09-01 00:31:41 | 54.92611 | 19.90144 | 79° | 95km/h | 1495m | 12.5m/s | -53.6°C | 0% | 32.9hPa | 2.2V | 00:00:00 | 00:00:00 | 00:00:00 | |
| AA1-15 | 2026-09-01 00:31:37 | 54.92515 | 19.90074 | 41° | 97km/h | 1469m | 8.2m/s | -53.5°C | 0% | 33.1hPa | 2.2V | 00:00:00 | 00:00:00 | 00:00:00 | |
| AA1-15 | 2026-09-01 00:31:35 | 54.92493 | 19.90045 | 36° | 93km/h | 1459m | 8.3m/s | -53.5°C | 0% | 33.1hPa | 2.2V | 00:00:00 | 00:00:00 | 00:00:00 | |
| AA1-15 | 2026-09-01 00:31:31 | 54.92401 | 19.89972 | 13° | 97km/h | 1426m | 8.1m/s | -53.4°C | 0% | 33.2hPa | 2.2V | 00:00:00 | 00:00:00 | 00:00:00 | |
| AA1-15 | 2026-09-01 00:31:30 | 54.92381 | 19.89965 | 6° | 95km/h | 1415m | 8.2m/s | -53.4°C | 0% | 33.3hPa | 2.2V | 00:00:00 | 00:00:00 | 00:00:00 | |
| AA1-15 | 2026-09-01 00:31:29 | 54.92336 | 19.89963 | 360° | 95km/h | 1396m | 8.2m/s | -53.4°C | 0% | 33.3hPa | 2.2V | 00:00:00 | 00:00:00 | 00:00:00 | |
| AA1-15 | 2026-09-01 00:31:27 | 54.92313 | 19.89963 | 0° | 100km/h | 1387m | 8m/s | -53.4°C | 0% | 33.4hPa | 2.2V | 00:00:00 | 00:00:00 | 00:00:00 | |
| AA1-15 | 2026-09-01 00:31:24 | 54.92207 | 19.89963 | 0° | 93km/h | 1334m | 8m/s | -53.4°C | 0% | 33.5hPa | 2.2V | 00:00:00 | 00:00:00 | 00:00:00 | |
| AA1-15 | 2026-09-01 00:31:20 | 54.92162 | 19.89963 | 0° | 93km/h | 1314m | 8.1m/s | -53.4°C | 0% | 33.6hPa | 2.2V | 00:00:00 | 00:00:00 | 00:00:00 | |
| AA1-15 | 2026-09-01 00:31:19 | 54.92137 | 19.89963 | 0° | 97km/h | 1304m | 8.1m/s | -53.4°C | 0% | 33.6hPa | 2.2V | 00:00:00 | 00:00:00 | 00:00:00 | |
| AA1-15 | 2026-09-01 00:31:18 | 54.92084 | 19.89963 | 0° | 95km/h | 1283m | 8m/s | -53.3°C | 0% | 33.7hPa | 2.2V | 00:00:00 | 00:00:00 | 00:00:00 | |
| AA1-15 | 2026-09-01 00:31:16 | 54.92056 | 19.89962 | 0° | 100km/h | 1272m | 8.2m/s | -53.2°C | 0% | 33.7hPa | 2.2V | 00:00:00 | 00:00:00 | 00:00:00 | |
| AA1-15 | 2026-09-01 00:31:15 | 54.92032 | 19.89962 | 0° | 95km/h | 1258m | 8.1m/s | -53.2°C | 0% | 33.7hPa | 2.2V | 00:00:00 | 00:00:00 | 00:00:00 | |
| AA1-15 | 2026-09-01 00:31:14 | 54.92010 | 19.89962 | 360° | 99km/h | 1243m | 7.9m/s | -53.2°C | 0% | 33.8hPa | 2.2V | 00:00:00 | 00:00:00 | 00:00:00 | |
| AA1-15 | 2026-09-01 00:31:10 | 54.91933 | 19.89958 | 6° | 95km/h | 1206m | 8.1m/s | -53.4°C | 0% | 33.9hPa | 2.2V | 00:00:00 | 00:00:00 | 00:00:00 | |
| AA1-15 | 2026-09-01 00:31:09 | 54.91906 | 19.89947 | 24° | 95km/h | 1191m | 8.3m/s | -53.3°C | 0% | 33.9hPa | 2.2V | 00:00:00 | 00:00:00 | 00:00:00 | |
| AA1-15 | 2026-09-01 00:31:08 | 54.91858 | 19.89892 | 59° | 97km/h | 1154m | 8.2m/s | -53.3°C | 0% | 34hPa | 2.2V | 00:00:00 | 00:00:00 | 00:00:00 | |
| AA1-15 | 2026-09-01 00:31:05 | 54.91846 | 19.89810 | 100° | 99km/h | 1125m | 7.8m/s | -53.4°C | 0% | 34hPa | 2.2V | 00:00:00 | 00:00:00 | 00:00:00 | |
| AA1-15 | 2026-09-01 00:31:04 | 54.91875 | 19.89712 | 153° | 97km/h | 1085m | 8.4m/s | -53.4°C | 0% | 34.1hPa | 2.2V | 00:00:00 | 00:00:00 | 00:00:00 | |
| AA1-15 | 2026-09-01 00:31:00 | 54.91912 | 19.89701 | 191° | 89km/h | 1055m | 8.1m/s | -53.5°C | 0% | 34.2hPa | 2.2V | 00:00:00 | 00:00:00 | 00:00:00 | |
| AA1-15 | 2026-09-01 00:30:59 | 54.91932 | 19.89718 | 207° | 100km/h | 1039m | 8.2m/s | -53.5°C | 0% | 34.2hPa | 2.2V | 00:00:00 | 00:00:00 | 00:00:00 | |
| AA1-15 | 2026-09-01 00:30:58 | 54.91968 | 19.89786 | 243° | 97km/h | 1013m | 8.8m/s | -53.5°C | 0% | 34.3hPa | 2.2V | 00:00:00 | 00:00:00 | 00:00:00 | |
| AA1-15 | 2026-09-01 00:30:56 | 54.91978 | 19.89830 | 265° | 97km/h | 1004m | 9.3m/s | -53.5°C | 0% | 34.3hPa | 2.2V | 00:00:00 | 00:00:00 | 00:00:00 | |
| AA1-15 | 2026-09-01 00:30:55 | 54.91981 | 19.89877 | 271° | 99km/h | 999m | 8.5m/s | -53.4°C | 0% | 34.4hPa | 2.2V | 00:00:00 | 00:00:00 | 00:00:00 | |
| AA1-15 | 2026-09-01 00:30:54 | 54.91985 | 19.89922 | 270° | 97km/h | 993m | 9.1m/s | -53.4°C | 0% | 34.4hPa | 2.2V | 00:00:00 | 00:00:00 | 00:00:00 | |
| AA1-15 | 2026-09-01 00:30:54 | 54.91988 | 19.90046 | 270° | 95km/h | 964m | 8.2m/s | -53.3°C | 0% | 34.5hPa | 2.2V | 00:00:00 | 00:00:00 | 00:00:00 | |
| AA1-15 | 2026-09-01 00:30:51 | 54.91994 | 19.90089 | 270° | 95km/h | 960m | 8.4m/s | -53.3°C | 0% | 34.5hPa | 2.2V | 00:00:00 | 00:00:00 | 00:00:00 | |
| AA1-15 | 2026-09-01 00:30:49 | 54.92000 | 19.90133 | 270° | 97km/h | 955m | 8.2m/s | -53.2°C | 0% | 34.5hPa | 2.2V | 00:00:00 | 00:00:00 | 00:00:00 | |
| AA1-15 | 2026-09-01 00:30:48 | 54.92011 | 19.90177 | 269° | 97km/h | 954m | 7.7m/s | -53.2°C | 0% | 34.6hPa | 2.2V | 00:00:00 | 00:00:00 | 00:00:00 | |
| AA1-15 | 2026-09-01 00:30:47 | 54.92040 | 19.90271 | 262° | 99km/h | 950m | 6.1m/s | -53.1°C | 0% | 34.6hPa | 2.2V | 00:00:00 | 00:00:00 | 00:00:00 | |
| AA1-15 | 2026-09-01 00:30:45 | 54.92061 | 19.90323 | 270° | 95km/h | 948m | 8m/s | -53.1°C | 0% | 34.7hPa | 2.2V | 00:00:00 | 00:00:00 | 00:00:00 | |
| AA1-15 | 2026-09-01 00:30:44 | 54.92104 | 19.90385 | 269° | 95km/h | 952m | 7.6m/s | -53°C | 0% | 34.7hPa | 2.2V | 00:00:00 | 00:00:00 | 00:00:00 | |
| AA1-15 | 2026-09-01 00:30:42 | 54.92349 | 19.90643 | 257° | 100km/h | 1031m | 7.9m/s | -53°C | 0% | 34.8hPa | 2.2V | 00:00:00 | 00:00:00 | 00:00:00 | |
| AA1-15 | 2026-09-01 00:30:39 | 54.92482 | 19.91179 | 251° | 93km/h | 1009m | 7.4m/s | -53°C | 0% | 34.9hPa | 2.2V | 00:00:00 | 00:00:00 | 00:00:00 | |
| AA1-15 | 2026-09-01 00:30:33 | 54.92233 | 19.90783 | 187° | 155km/h | 1377m | -48.6m/s | -53.1°C | 0% | 35.1hPa | 2.2V | 00:00:00 | 00:00:00 | 00:00:00 | |
| AA1-15 | 2026-09-01 00:30:28 | 54.88448 | 20.04249 | 19° | 29km/h | 159087m | 0.6m/s | -53.1°C | 0% | 35.2hPa | 2.2V | 00:00:00 | 00:00:00 | 00:00:00 | |
| AA1-15 | 2026-09-01 00:30:18 | 54.88429 | 20.04133 | 0° | 16km/h | 3011m | 8.2m/s | -52.9°C | 0% | 35.5hPa | 2.2V | 00:00:00 | 00:00:00 | 00:00:00 | |
| AA1-15 | 2026-09-01 00:30:07 | 54.88360 | 20.04129 | 358° | 18km/h | 2834m | 8.2m/s | -53°C | 0% | 35.9hPa | 2.2V | 00:00:00 | 00:00:00 | 00:00:00 | |
| AA1-15 | 2026-09-01 00:29:56 | 54.88323 | 20.04133 | 0° | 11km/h | 2736m | 8.2m/s | -52.9°C | 0% | 36.2hPa | 2.2V | 00:00:00 | 00:00:00 | 00:00:00 | |
| AA1-15 | 2026-09-01 00:29:45 | 54.88211 | 20.04073 | 6° | 11km/h | 2638m | 7.8m/s | -52.7°C | 0% | 36.6hPa | 2.2V | 00:00:00 | 00:00:00 | 00:00:00 | |
| AA1-15 | 2026-09-01 00:29:35 | 54.88189 | 20.04022 | 0° | 16km/h | 2569m | 8m/s | -52.6°C | 0% | 36.9hPa | 2.2V | 00:00:00 | 00:00:00 | 00:00:00 | |
| AA1-15 | 2026-09-01 00:29:24 | 54.88217 | 20.04121 | 359° | 18km/h | 159087m | 8.8m/s | -52.4°C | 0% | 37.3hPa | 2.2V | 00:00:00 | 00:00:00 | 00:00:00 | |
| AA1-15 | 2026-09-01 00:29:12 | 54.88145 | 20.04090 | 3° | 13km/h | 2591m | 8.1m/s | -52.3°C | 0% | 37.6hPa | 2.2V | 00:00:00 | 00:00:00 | 00:00:00 | |
| AA1-15 | 2026-09-01 00:29:01 | 54.88094 | 20.04087 | 3° | 11km/h | 2473m | 8.2m/s | -52.2°C | 0% | 38hPa | 2.2V | 00:00:00 | 00:00:00 | 00:00:00 | |
| AA1-15 | 2026-09-01 00:28:50 | 54.88019 | 20.04054 | 2° | 16km/h | 2341m | 8.1m/s | -52.4°C | 0% | 38.4hPa | 2.2V | 00:00:00 | 00:00:00 | 00:00:00 | |
| AA1-15 | 2026-09-01 00:28:39 | 54.87971 | 20.04042 | 360° | 16km/h | 2198m | 8.2m/s | -52.8°C | 0% | 38.7hPa | 2.2V | 00:00:00 | 00:00:00 | 00:00:00 | |
| AA1-15 | 2026-09-01 00:28:29 | 54.87982 | 20.04064 | 2° | 11km/h | 2093m | 8m/s | -52.9°C | 0% | 39.1hPa | 2.2V | 00:00:00 | 00:00:00 | 00:00:00 | |
| AA1-15 | 2026-09-01 00:28:18 | 54.87924 | 20.04059 | 1° | 18km/h | 1996m | 8.3m/s | -52.8°C | 0% | 39.5hPa | 2.2V | 00:00:00 | 00:00:00 | 00:00:00 | |
| AA1-15 | 2026-09-01 00:28:17 | 54.87918 | 20.04055 | 0° | 9km/h | 1989m | 7.9m/s | -52.8°C | 0% | 39.5hPa | 2.2V | 00:00:00 | 00:00:00 | 00:00:00 | |
| AA1-15 | 2026-09-01 00:28:15 | 54.87899 | 20.04031 | 358° | 31km/h | 1975m | 4.9m/s | -52.8°C | 0% | 39.6hPa | 2.2V | 00:00:00 | 00:00:00 | 00:00:00 | |
| AA1-15 | 2026-09-01 00:28:14 | 54.87875 | 20.04023 | 1° | 95km/h | 1974m | 7.7m/s | -52.8°C | 0% | 39.6hPa | 2.2V | 00:00:00 | 00:00:00 | 00:00:00 | |
| AA1-15 | 2026-09-01 00:28:11 | 54.87761 | 20.04031 | 351° | 95km/h | 1949m | 8m/s | -52.8°C | 0% | 39.8hPa | 2.2V | 00:00:00 | 00:00:00 | 00:00:00 | |
| AA1-15 | 2026-09-01 00:28:08 | 54.87703 | 20.04048 | 349° | 97km/h | 1938m | 8.2m/s | -52.8°C | 0% | 39.8hPa | 2.2V | 00:00:00 | 00:00:00 | 00:00:00 | |
| AA1-15 | 2026-09-01 00:28:07 | 54.87676 | 20.04060 | 347° | 91km/h | 1934m | 8m/s | -52.8°C | 0% | 39.9hPa | 2.2V | 00:00:00 | 00:00:00 | 00:00:00 | |
| AA1-15 | 2026-09-01 00:28:06 | 54.87652 | 20.04071 | 347° | 99km/h | 1926m | 8.6m/s | -52.8°C | 0% | 39.9hPa | 2.2V | 00:00:00 | 00:00:00 | 00:00:00 | |
| AA1-15 | 2026-09-01 00:28:04 | 54.87620 | 20.04095 | 344° | 99km/h | 1903m | 8.4m/s | -52.8°C | 0% | 40hPa | 2.2V | 00:00:00 | 00:00:00 | 00:00:00 | |
| AA1-15 | 2026-09-01 00:28:02 | 54.87582 | 20.04117 | 341° | 95km/h | 1891m | 8.2m/s | -52.8°C | 0% | 40hPa | 2.2V | 00:00:00 | 00:00:00 | 00:00:00 | |
| AA1-15 | 2026-09-01 00:28:01 | 54.87559 | 20.04125 | 340° | 97km/h | 1892m | 8.3m/s | -52.8°C | 0% | 40hPa | 2.2V | 00:00:00 | 00:00:00 | 00:00:00 | |
| AA1-15 | 2026-09-01 00:28:00 | 54.87538 | 20.04137 | 336° | 99km/h | 1896m | 8.3m/s | -52.8°C | 0% | 40.1hPa | 2.2V | 00:00:00 | 00:00:00 | 00:00:00 | |
| AA1-15 | 2026-09-01 00:27:59 | 54.87512 | 20.04146 | 334° | 97km/h | 1893m | 8.1m/s | -52.8°C | 0% | 40.1hPa | 2.2V | 00:00:00 | 00:00:00 | 00:00:00 | |
| AA1-15 | 2026-09-01 00:27:57 | 54.87459 | 20.04153 | 332° | 97km/h | 1896m | 9.8m/s | -52.7°C | 0% | 40.2hPa | 2.2V | 00:00:00 | 00:00:00 | 00:00:00 | |
| AA1-15 | 2026-09-01 00:27:56 | 54.87437 | 20.04173 | 328° | 91km/h | 1883m | 11.8m/s | -52.7°C | 0% | 40.2hPa | 2.2V | 00:00:00 | 00:00:00 | 00:00:00 | |
| AA1-15 | 2026-09-01 00:27:54 | 54.87388 | 20.04212 | 327° | 93km/h | 1855m | 9.4m/s | -52.7°C | 0% | 40.3hPa | 2.2V | 00:00:00 | 00:00:00 | 00:00:00 | |
| AA1-15 | 2026-09-01 00:27:53 | 54.87364 | 20.04233 | 327° | 95km/h | 1840m | 8.3m/s | -52.7°C | 0% | 40.3hPa | 2.2V | 00:00:00 | 00:00:00 | 00:00:00 | |
| AA1-15 | 2026-09-01 00:27:52 | 54.87340 | 20.04255 | 326° | 97km/h | 1829m | 8.2m/s | -52.7°C | 0% | 40.4hPa | 2.2V | 00:00:00 | 00:00:00 | 00:00:00 | |
| AA1-15 | 2026-09-01 00:27:51 | 54.87296 | 20.04307 | 322° | 97km/h | 1801m | 8.4m/s | -52.7°C | 0% | 40.4hPa | 2.2V | 00:00:00 | 00:00:00 | 00:00:00 | |
| AA1-15 | 2026-09-01 00:27:48 | 54.87236 | 20.04395 | 315° | 93km/h | 1753m | 8.2m/s | -52.7°C | 0% | 40.5hPa | 2.2V | 00:00:00 | 00:00:00 | 00:00:00 | |
| AA1-15 | 2026-09-01 00:27:46 | 54.87218 | 20.04426 | 316° | 93km/h | 1738m | 8m/s | -52.7°C | 0% | 40.6hPa | 2.2V | 00:00:00 | 00:00:00 | 00:00:00 | |
| AA1-15 | 2026-09-01 00:27:44 | 54.87164 | 20.04520 | 310° | 95km/h | 1689m | 7.8m/s | -52.6°C | 0% | 40.7hPa | 2.2V | 00:00:00 | 00:00:00 | 00:00:00 | |
| AA1-15 | 2026-09-01 00:27:43 | 54.87154 | 20.04552 | 311° | 97km/h | 1679m | 7.6m/s | -52.6°C | 0% | 40.7hPa | 2.2V | 00:00:00 | 00:00:00 | 00:00:00 | |
| AA1-15 | 2026-09-01 00:27:42 | 54.87148 | 20.04587 | 307° | 93km/h | 1669m | 6.9m/s | -52.6°C | 0% | 40.8hPa | 2.2V | 00:00:00 | 00:00:00 | 00:00:00 | |
| AA1-15 | 2026-09-01 00:27:39 | 54.87145 | 20.04660 | 306° | 99km/h | 1652m | 7.8m/s | -52.6°C | 0% | 40.8hPa | 2.2V | 00:00:00 | 00:00:00 | 00:00:00 | |
| AA1-15 | 2026-09-01 00:27:38 | 54.87139 | 20.04698 | 302° | 95km/h | 1640m | 8.4m/s | -52.6°C | 0% | 40.9hPa | 2.2V | 00:00:00 | 00:00:00 | 00:00:00 | |
| AA1-15 | 2026-09-01 00:27:37 | 54.87138 | 20.04736 | 302° | 97km/h | 1628m | 8.5m/s | -52.6°C | 0% | 40.9hPa | 2.2V | 00:00:00 | 00:00:00 | 00:00:00 | |
| AA1-15 | 2026-09-01 00:27:36 | 54.87137 | 20.04772 | 302° | 99km/h | 1614m | 8.6m/s | -52.6°C | 0% | 40.9hPa | 2.2V | 00:00:00 | 00:00:00 | 00:00:00 | |
| AA1-15 | 2026-09-01 00:27:34 | 54.87123 | 20.04855 | 301° | 97km/h | 1598m | 9.2m/s | -52.6°C | 0% | 41hPa | 2.2V | 00:00:00 | 00:00:00 | 00:00:00 | |
| AA1-15 | 2026-09-01 00:27:33 | 54.87113 | 20.04906 | 306° | 106km/h | 1594m | 9.8m/s | -52.6°C | 0% | 41hPa | 2.2V | 00:00:00 | 00:00:00 | 00:00:00 | |
| AA1-15 | 2026-09-01 00:27:31 | 54.87092 | 20.05041 | 291° | 95km/h | 1590m | 8.4m/s | -52.5°C | 0% | 41.1hPa | 2.2V | 00:00:00 | 00:00:00 | 00:00:00 | |
| AA1-15 | 2026-09-01 00:27:29 | 54.87098 | 20.05125 | 290° | 97km/h | 1570m | 8.4m/s | -52.5°C | 0% | 41.2hPa | 2.2V | 00:00:00 | 00:00:00 | 00:00:00 | |
| AA1-15 | 2026-09-01 00:27:28 | 54.87073 | 20.05209 | 289° | 100km/h | 1544m | 11.5m/s | -52.5°C | 0% | 41.2hPa | 2.2V | 00:00:00 | 00:00:00 | 00:00:00 | |
| AA1-15 | 2026-09-01 00:27:27 | 54.87067 | 20.05251 | 285° | 97km/h | 1530m | 8.5m/s | -52.5°C | 0% | 41.3hPa | 2.2V | 00:00:00 | 00:00:00 | 00:00:00 | |
| AA1-15 | 2026-09-01 00:27:25 | 54.87062 | 20.05292 | 282° | 95km/h | 1519m | 7.8m/s | -52.5°C | 0% | 41.3hPa | 2.2V | 00:00:00 | 00:00:00 | 00:00:00 | |
| AA1-15 | 2026-09-01 00:27:24 | 54.87058 | 20.05333 | 280° | 95km/h | 1511m | 7.8m/s | -52.5°C | 0% | 41.4hPa | 2.2V | 00:00:00 | 00:00:00 | 00:00:00 | |
| AA1-15 | 2026-09-01 00:27:23 | 54.87054 | 20.05374 | 281° | 93km/h | 1502m | 8m/s | -52.5°C | 0% | 41.4hPa | 2.2V | 00:00:00 | 00:00:00 | 00:00:00 | |
| AA1-15 | 2026-09-01 00:27:22 | 54.87050 | 20.05414 | 281° | 95km/h | 1494m | 8.2m/s | -52.5°C | 0% | 41.4hPa | 2.2V | 00:00:00 | 00:00:00 | 00:00:00 | |
| AA1-15 | 2026-09-01 00:27:21 | 54.87046 | 20.05456 | 278° | 97km/h | 1486m | 8.2m/s | -52.5°C | 0% | 41.5hPa | 2.2V | 00:00:00 | 00:00:00 | 00:00:00 | |
| AA1-15 | 2026-09-01 00:27:19 | 54.87041 | 20.05539 | 275° | 97km/h | 1469m | 7.8m/s | -52.5°C | 0% | 41.5hPa | 2.2V | 00:00:00 | 00:00:00 | 00:00:00 | |
| AA1-15 | 2026-09-01 00:27:17 | 54.87038 | 20.05622 | 271° | 95km/h | 1451m | 8.2m/s | -52.6°C | 0% | 41.6hPa | 2.2V | 00:00:00 | 00:00:00 | 00:00:00 | |
| AA1-15 | 2026-09-01 00:27:16 | 54.87037 | 20.05664 | 268° | 99km/h | 1442m | 8.2m/s | -52.6°C | 0% | 41.6hPa | 2.2V | 00:00:00 | 00:00:00 | 00:00:00 | |
| AA1-15 | 2026-09-01 00:27:14 | 54.87043 | 20.05830 | 263° | 95km/h | 1403m | 8m/s | -52.9°C | 0% | 41.8hPa | 2.2V | 00:00:00 | 00:00:00 | 00:00:00 | |
| AA1-15 | 2026-09-01 00:27:13 | 54.87049 | 20.05871 | 261° | 97km/h | 1394m | 8m/s | -52.9°C | 0% | 41.8hPa | 2.2V | 00:00:00 | 00:00:00 | 00:00:00 | |
| AA1-15 | 2026-09-01 00:27:11 | 54.87056 | 20.05913 | 262° | 99km/h | 1387m | 7.9m/s | -52.9°C | 0% | 41.9hPa | 2.2V | 00:00:00 | 00:00:00 | 00:00:00 | |
| AA1-15 | 2026-09-01 00:27:09 | 54.87063 | 20.05953 | 258° | 95km/h | 1380m | 8m/s | -53°C | 0% | 41.9hPa | 2.2V | 00:00:00 | 00:00:00 | 00:00:00 | |
| AA1-15 | 2026-09-01 00:27:08 | 54.87064 | 20.05992 | 256° | 97km/h | 1365m | 7.9m/s | -53°C | 0% | 41.9hPa | 2.2V | 00:00:00 | 00:00:00 | 00:00:00 | |
| AA1-15 | 2026-09-01 00:27:07 | 54.87061 | 20.06028 | 252° | 95km/h | 1348m | 8.2m/s | -53.1°C | 0% | 42hPa | 2.2V | 00:00:00 | 00:00:00 | 00:00:00 | |
| AA1-15 | 2026-09-01 00:27:05 | 54.87048 | 20.06092 | 252° | 95km/h | 1311m | 8.3m/s | -53.2°C | 0% | 42hPa | 2.2V | 00:00:00 | 00:00:00 | 00:00:00 | |
| AA1-15 | 2026-09-01 00:27:04 | 54.87053 | 20.06128 | 248° | 97km/h | 1302m | 7.1m/s | -53.2°C | 0% | 42.1hPa | 2.2V | 00:00:00 | 00:00:00 | 00:00:00 | |
| AA1-15 | 2026-09-01 00:27:03 | 54.87081 | 20.06170 | 249° | 95km/h | 1303m | 8.5m/s | -53.2°C | 0% | 42.1hPa | 2.2V | 00:00:00 | 00:00:00 | 00:00:00 | |
| AA1-15 | 2026-09-01 00:27:01 | 54.87109 | 20.06251 | 245° | 97km/h | 1287m | 7.8m/s | -53.1°C | 0% | 42.2hPa | 2.2V | 00:00:00 | 00:00:00 | 00:00:00 | |
| AA1-15 | 2026-09-01 00:27:00 | 54.87119 | 20.06288 | 242° | 99km/h | 1280m | 7.4m/s | -53.1°C | 0% | 42.2hPa | 2.2V | 00:00:00 | 00:00:00 | 00:00:00 | |
| AA1-15 | 2026-09-01 00:26:58 | 54.87143 | 20.06362 | 240° | 93km/h | 1264m | 8.1m/s | -53.1°C | 0% | 42.3hPa | 2.2V | 00:00:00 | 00:00:00 | 00:00:00 | |
| AA1-15 | 2026-09-01 00:26:57 | 54.87157 | 20.06398 | 237° | 99km/h | 1254m | 7.9m/s | -53.1°C | 0% | 42.3hPa | 2.2V | 00:00:00 | 00:00:00 | 00:00:00 | |
| AA1-15 | 2026-09-01 00:26:55 | 54.87184 | 20.06470 | 234° | 93km/h | 1230m | 8m/s | -53.1°C | 0% | 42.4hPa | 2.2V | 00:00:00 | 00:00:00 | 00:00:00 | |
| AA1-15 | 2026-09-01 00:26:53 | 54.87208 | 20.06538 | 235° | 91km/h | 1205m | 8.3m/s | -53°C | 0% | 42.5hPa | 2.2V | 00:00:00 | 00:00:00 | 00:00:00 | |
| AA1-15 | 2026-09-01 00:26:52 | 54.87221 | 20.06569 | 234° | 93km/h | 1197m | 8.6m/s | -53°C | 0% | 42.5hPa | 2.2V | 00:00:00 | 00:00:00 | 00:00:00 | |
| AA1-15 | 2026-09-01 00:26:50 | 54.87249 | 20.06627 | 226° | 100km/h | 1186m | 7.7m/s | -52.9°C | 0% | 42.6hPa | 2.2V | 00:00:00 | 00:00:00 | 00:00:00 | |
| AA1-15 | 2026-09-01 00:26:42 | 55.89453 | 20.87718 | 0° | 0km/h | 159087m | 0m/s | -52.8°C | 0% | 42.9hPa | 2.2V | 00:00:00 | 00:00:00 | 00:00:00 | |
| AA1-15 | 2026-09-01 00:26:31 | 55.78435 | 21.05771 | 219° | 219km/h | 159087m | 0.6m/s | -52.6°C | 0% | 43.3hPa | 2.2V | 00:00:00 | 00:00:00 | 00:00:00 | |
| AA1-15 | 2026-09-01 00:26:21 | 55.78666 | 21.06150 | 215° | 206km/h | 159087m | 1.1m/s | -52.6°C | 0% | 43.7hPa | 2.2V | 00:00:00 | 00:00:00 | 00:00:00 | |
| AA1-15 | 2026-09-01 00:26:10 | 55.79254 | 21.06809 | 209° | 190km/h | 159087m | 1.5m/s | -52.4°C | 0% | 44.1hPa | 2.2V | 00:00:00 | 00:00:00 | 00:00:00 | |
| AA1-15 | 2026-09-01 00:25:59 | 55.79732 | 21.07257 | 204° | 172km/h | 51586m | 0.4m/s | -52.1°C | 0% | 44.5hPa | 2.2V | 00:00:00 | 00:00:00 | 00:00:00 | |
| AA1-15 | 2026-09-01 00:25:49 | 55.80178 | 21.07592 | 199° | 148km/h | 51614m | 0.8m/s | -51.9°C | 0% | 44.9hPa | 2.2V | 00:00:00 | 00:00:00 | 00:00:00 | |
| AA1-15 | 2026-09-01 00:25:38 | 55.80628 | 21.07922 | 197° | 131km/h | 51657m | 0.2m/s | -52.1°C | 0% | 45.3hPa | 2.2V | 00:00:00 | 00:00:00 | 00:00:00 | |
| AA1-15 | 2026-09-01 00:25:27 | 55.80893 | 21.08019 | 196° | 97km/h | 51606m | 0.3m/s | -52.3°C | 0% | 45.7hPa | 2.2V | 00:00:00 | 00:00:00 | 00:00:00 | |
| AA1-15 | 2026-09-01 00:25:16 | 55.81188 | 21.08238 | 199° | 49km/h | 51723m | 5.7m/s | -52.4°C | 0% | 46.1hPa | 2.2V | 00:00:00 | 00:00:00 | 00:00:00 | |
| AA1-15 | 2026-09-01 00:25:06 | 54.95277 | 19.26067 | 0° | 0km/h | 159087m | 0m/s | -52.3°C | 0% | 46.6hPa | 2.2V | 00:00:00 | 00:00:00 | 00:00:00 | |
| AA1-15 | 2026-09-01 00:24:55 | 54.95277 | 19.26067 | 0° | 0km/h | 159087m | 0m/s | -52.4°C | 0% | 47hPa | 2.2V | 00:00:00 | 00:00:00 | 00:00:00 | |
| AA1-15 | 2026-09-01 00:24:45 | 54.95277 | 19.26067 | 0° | 0km/h | 159087m | 0m/s | -52.8°C | 0% | 47.4hPa | 2.2V | 00:00:00 | 00:00:00 | 00:00:00 | |
| AA1-15 | 2026-09-01 00:24:35 | 54.95277 | 19.26067 | 0° | 0km/h | 159087m | 0m/s | -52.6°C | 0% | 47.9hPa | 2.2V | 00:00:00 | 00:00:00 | 00:00:00 | |
| AA1-15 | 2026-09-01 00:24:25 | 54.95271 | 19.26112 | 283° | 22km/h | 159087m | 10.4m/s | -52.3°C | 0% | 48.3hPa | 2.2V | 00:00:00 | 00:00:00 | 00:00:00 | |
| AA1-15 | 2026-09-01 00:24:14 | 54.95264 | 19.26189 | 287° | 16km/h | 2479m | 8.7m/s | -52°C | 0% | 48.8hPa | 2.2V | 00:00:00 | 00:00:00 | 00:00:00 | |
| AA1-15 | 2026-09-01 00:24:03 | 54.95258 | 19.26261 | 275° | 15km/h | 2401m | 8.4m/s | -52.2°C | 0% | 49.2hPa | 2.2V | 00:00:00 | 00:00:00 | 00:00:00 | |
| AA1-15 | 2026-09-01 00:23:52 | 54.95247 | 19.26329 | 268° | 16km/h | 159087m | 7.8m/s | -52.2°C | 0% | 49.7hPa | 2.2V | 00:00:00 | 00:00:00 | 00:00:00 | |
| AA1-15 | 2026-09-01 00:23:40 | 54.95237 | 19.26424 | 328° | 11km/h | 2197m | 8.9m/s | -51.9°C | 0% | 50.2hPa | 2.2V | 00:00:00 | 00:00:00 | 00:00:00 | |
| AA1-15 | 2026-09-01 00:23:30 | 54.95230 | 19.26481 | 269° | 15km/h | 2099m | 10.3m/s | -51.8°C | 0% | 50.6hPa | 2.2V | 00:00:00 | 00:00:00 | 00:00:00 | |
| AA1-15 | 2026-09-01 00:23:20 | 54.95198 | 19.26535 | 232° | 16km/h | 1985m | 7.7m/s | -51.5°C | 0% | 51hPa | 2.2V | 00:00:00 | 00:00:00 | 00:00:00 | |
| AA1-15 | 2026-09-01 00:23:19 | 54.95197 | 19.26540 | 268° | 16km/h | 1972m | 8.1m/s | -51.5°C | 0% | 51hPa | 2.2V | 00:00:00 | 00:00:00 | 00:00:00 | |
| AA1-15 | 2026-09-01 00:23:18 | 54.95189 | 19.26555 | 270° | 16km/h | 1954m | 8.2m/s | -51.5°C | 0% | 51.1hPa | 2.2V | 00:00:00 | 00:00:00 | 00:00:00 | |
| AA1-15 | 2026-09-01 00:23:16 | 54.95185 | 19.26563 | 270° | 13km/h | 1943m | 8.1m/s | -51.5°C | 0% | 51.1hPa | 2.2V | 00:00:00 | 00:00:00 | 00:00:00 | |
| AA1-15 | 2026-09-01 00:23:15 | 54.95179 | 19.26578 | 271° | 18km/h | 1938m | 4.2m/s | -51.5°C | 0% | 51.2hPa | 2.2V | 00:00:00 | 00:00:00 | 00:00:00 | |
| AA1-15 | 2026-09-01 00:23:13 | 54.95177 | 19.26600 | 272° | 13km/h | 1930m | 8.2m/s | -51.5°C | 0% | 51.2hPa | 2.2V | 00:00:00 | 00:00:00 | 00:00:00 | |
| AA1-15 | 2026-09-01 00:23:12 | 54.95164 | 19.26617 | 271° | 16km/h | 1903m | 6.7m/s | -51.5°C | 0% | 51.3hPa | 2.2V | 00:00:00 | 00:00:00 | 00:00:00 | |
| AA1-15 | 2026-09-01 00:23:11 | 54.95159 | 19.26613 | 177° | 37km/h | 1892m | -5.5m/s | -51.5°C | 0% | 51.3hPa | 2.2V | 00:00:00 | 00:00:00 | 00:00:00 | |
| AA1-15 | 2026-09-01 00:23:09 | 54.95155 | 19.26591 | 273° | 13km/h | 1888m | 7.9m/s | -51.5°C | 0% | 51.4hPa | 2.2V | 00:00:00 | 00:00:00 | 00:00:00 | |
| AA1-15 | 2026-09-01 00:23:08 | 54.95169 | 19.26615 | 173° | 44km/h | 1895m | -32m/s | -51.5°C | 0% | 51.5hPa | 2.2V | 00:00:00 | 00:00:00 | 00:00:00 | |
| AA1-15 | 2026-09-01 00:23:07 | 54.95179 | 19.26614 | 168° | 40km/h | 1921m | -30.2m/s | -51.5°C | 0% | 51.5hPa | 2.2V | 00:00:00 | 00:00:00 | 00:00:00 | |
| AA1-15 | 2026-09-01 00:23:05 | 54.95186 | 19.26611 | 156° | 15km/h | 1941m | -13.3m/s | -51.5°C | 0% | 51.6hPa | 2.2V | 00:00:00 | 00:00:00 | 00:00:00 | |
| AA1-15 | 2026-09-01 00:23:04 | 54.95187 | 19.26613 | 272° | 13km/h | 1936m | 8.2m/s | -51.5°C | 0% | 51.6hPa | 2.2V | 00:00:00 | 00:00:00 | 00:00:00 | |
| AA1-15 | 2026-09-01 00:23:03 | 54.95189 | 19.26619 | 271° | 16km/h | 1934m | 7.9m/s | -51.5°C | 0% | 51.7hPa | 2.2V | 00:00:00 | 00:00:00 | 00:00:00 | |
| AA1-15 | 2026-09-01 00:23:01 | 54.95192 | 19.26631 | 270° | 13km/h | 1932m | 8.8m/s | -51.5°C | 0% | 51.8hPa | 2.2V | 00:00:00 | 00:00:00 | 00:00:00 | |
| AA1-15 | 2026-09-01 00:23:00 | 54.95194 | 19.26638 | 265° | 13km/h | 1921m | 8.7m/s | -51.5°C | 0% | 51.8hPa | 2.2V | 00:00:00 | 00:00:00 | 00:00:00 | |
| AA1-15 | 2026-09-01 00:22:59 | 54.95196 | 19.26644 | 282° | 16km/h | 1914m | 8.1m/s | -51.5°C | 0% | 51.9hPa | 2.2V | 00:00:00 | 00:00:00 | 00:00:00 | |
| AA1-15 | 2026-09-01 00:22:58 | 54.95194 | 19.26647 | 269° | 16km/h | 1911m | 10.3m/s | -51.5°C | 0% | 51.9hPa | 2.2V | 00:00:00 | 00:00:00 | 00:00:00 | |
| AA1-15 | 2026-09-01 00:22:55 | 54.95174 | 19.26636 | 302° | 18km/h | 1908m | 13.9m/s | -51.5°C | 0% | 52hPa | 2.2V | 00:00:00 | 00:00:00 | 00:00:00 | |
| AA1-15 | 2026-09-01 00:22:54 | 54.95169 | 19.26639 | 314° | 27km/h | 1902m | 19.9m/s | -51.5°C | 0% | 52hPa | 2.2V | 00:00:00 | 00:00:00 | 00:00:00 | |
| AA1-15 | 2026-09-01 00:22:53 | 54.95163 | 19.26646 | 311° | 33km/h | 1880m | 19.7m/s | -51.5°C | 0% | 52.1hPa | 2.2V | 00:00:00 | 00:00:00 | 00:00:00 | |
| AA1-15 | 2026-09-01 00:22:51 | 54.95158 | 19.26664 | 273° | 16km/h | 1833m | 8.3m/s | -51.5°C | 0% | 52.2hPa | 2.2V | 00:00:00 | 00:00:00 | 00:00:00 | |
| AA1-15 | 2026-09-01 00:22:50 | 54.95194 | 19.26675 | 292° | 18km/h | 1803m | 13.7m/s | -51.5°C | 0% | 52.3hPa | 2.2V | 00:00:00 | 00:00:00 | 00:00:00 | |
| AA1-15 | 2026-09-01 00:22:48 | 54.95207 | 19.26681 | 299° | 20km/h | 1773m | 12.4m/s | -51.5°C | 0% | 52.3hPa | 2.2V | 00:00:00 | 00:00:00 | 00:00:00 | |
| AA1-15 | 2026-09-01 00:22:48 | 54.95199 | 19.26693 | 324° | 55km/h | 1752m | 2.8m/s | -51.5°C | 0% | 52.4hPa | 2.2V | 00:00:00 | 00:00:00 | 00:00:00 | |
| AA1-15 | 2026-09-01 00:22:46 | 54.95175 | 19.26721 | 273° | 13km/h | 1751m | 8.1m/s | -51.5°C | 0% | 52.4hPa | 2.2V | 00:00:00 | 00:00:00 | 00:00:00 | |
| AA1-15 | 2026-09-01 00:22:45 | 54.95175 | 19.26730 | 271° | 16km/h | 1737m | 8.5m/s | -51.5°C | 0% | 52.5hPa | 2.2V | 00:00:00 | 00:00:00 | 00:00:00 | |
| AA1-15 | 2026-09-01 00:22:42 | 54.95173 | 19.26749 | 298° | 20km/h | 1707m | 14.2m/s | -51.5°C | 0% | 52.6hPa | 2.2V | 00:00:00 | 00:00:00 | 00:00:00 | |
| AA1-15 | 2026-09-01 00:22:40 | 54.95167 | 19.26767 | 268° | 20km/h | 1676m | 9m/s | -51.5°C | 0% | 52.6hPa | 2.2V | 00:00:00 | 00:00:00 | 00:00:00 | |
| AA1-15 | 2026-09-01 00:22:39 | 54.95166 | 19.26774 | 272° | 16km/h | 1667m | 8.2m/s | -51.5°C | 0% | 52.7hPa | 2.2V | 00:00:00 | 00:00:00 | 00:00:00 | |
| AA1-15 | 2026-09-01 00:22:37 | 54.95161 | 19.26788 | 274° | 18km/h | 1640m | 8.7m/s | -51.5°C | 0% | 52.8hPa | 2.2V | 00:00:00 | 00:00:00 | 00:00:00 | |
| AA1-15 | 2026-09-01 00:22:36 | 54.95149 | 19.26801 | 273° | 13km/h | 1601m | 8.1m/s | -51.6°C | 0% | 52.9hPa | 2.2V | 00:00:00 | 00:00:00 | 00:00:00 | |
| AA1-15 | 2026-09-01 00:22:33 | 54.95142 | 19.26796 | 270° | 13km/h | 1590m | 7.6m/s | -51.6°C | 0% | 53hPa | 2.2V | 00:00:00 | 00:00:00 | 00:00:00 | |
| AA1-15 | 2026-09-01 00:22:31 | 54.95122 | 19.26799 | 226° | 89km/h | 1577m | -9.1m/s | -51.6°C | 0% | 53hPa | 2.2V | 00:00:00 | 00:00:00 | 00:00:00 | |
| AA1-15 | 2026-09-01 00:22:30 | 54.95137 | 19.26830 | 225° | 131km/h | 1593m | -15.1m/s | -51.6°C | 0% | 53.1hPa | 2.2V | 00:00:00 | 00:00:00 | 00:00:00 | |
| AA1-15 | 2026-09-01 00:22:29 | 54.95209 | 19.26881 | 262° | 13km/h | 1611m | 5.7m/s | -51.7°C | 0% | 53.2hPa | 2.2V | 00:00:00 | 00:00:00 | 00:00:00 | |
| AA1-15 | 2026-09-01 00:22:27 | 54.95229 | 19.26896 | 220° | 68km/h | 1617m | 2.4m/s | -51.7°C | 0% | 53.4hPa | 2.2V | 00:00:00 | 00:00:00 | 00:00:00 | |
| AA1-15 | 2026-09-01 00:22:22 | 54.95233 | 19.26909 | 268° | 13km/h | 1609m | 7.7m/s | -51.6°C | 0% | 53.4hPa | 2.2V | 00:00:00 | 00:00:00 | 00:00:00 | |
| AA1-15 | 2026-09-01 00:22:21 | 54.95235 | 19.26914 | 271° | 15km/h | 1604m | 8.3m/s | -51.6°C | 0% | 53.5hPa | 2.2V | 00:00:00 | 00:00:00 | 00:00:00 | |
| AA1-15 | 2026-09-01 00:22:20 | 54.95237 | 19.26919 | 270° | 13km/h | 1600m | 8m/s | -51.6°C | 0% | 53.5hPa | 2.2V | 00:00:00 | 00:00:00 | 00:00:00 | |
| AA1-15 | 2026-09-01 00:22:18 | 54.95241 | 19.26929 | 273° | 16km/h | 1585m | 8.5m/s | -51.7°C | 0% | 53.6hPa | 2.2V | 00:00:00 | 00:00:00 | 00:00:00 | |
| AA1-15 | 2026-09-01 00:22:18 | 54.95244 | 19.26935 | 290° | 15km/h | 1584m | 9.7m/s | -51.7°C | 0% | 53.6hPa | 2.2V | 00:00:00 | 00:00:00 | 00:00:00 | |
| AA1-15 | 2026-09-01 00:22:16 | 54.95248 | 19.26940 | 275° | 18km/h | 1591m | 7.6m/s | -51.7°C | 0% | 53.6hPa | 2.2V | 00:00:00 | 00:00:00 | 00:00:00 | |
| AA1-15 | 2026-09-01 00:22:15 | 54.95253 | 19.26949 | 280° | 16km/h | 1590m | 12.1m/s | -51.8°C | 0% | 53.7hPa | 2.2V | 00:00:00 | 00:00:00 | 00:00:00 | |
| AA1-15 | 2026-09-01 00:22:12 | 54.95261 | 19.26974 | 269° | 95km/h | 1585m | 8.7m/s | -51.8°C | 0% | 53.8hPa | 2.2V | 00:00:00 | 00:00:00 | 00:00:00 | |
| AA1-15 | 2026-09-01 00:22:10 | 54.95252 | 19.27060 | 254° | 95km/h | 1545m | 8.2m/s | -51.8°C | 0% | 53.9hPa | 2.2V | 00:00:00 | 00:00:00 | 00:00:00 | |
| AA1-15 | 2026-09-01 00:22:09 | 54.95251 | 19.27102 | 248° | 97km/h | 1526m | 7.9m/s | -51.8°C | 0% | 53.9hPa | 2.2V | 00:00:00 | 00:00:00 | 00:00:00 | |
| AA1-15 | 2026-09-01 00:22:08 | 54.95250 | 19.27140 | 241° | 97km/h | 1507m | 8.1m/s | -51.7°C | 0% | 54hPa | 2.2V | 00:00:00 | 00:00:00 | 00:00:00 | |
| AA1-15 | 2026-09-01 00:22:07 | 54.95251 | 19.27177 | 240° | 91km/h | 1487m | 9.2m/s | -51.7°C | 0% | 54hPa | 2.2V | 00:00:00 | 00:00:00 | 00:00:00 | |
| AA1-15 | 2026-09-01 00:22:05 | 54.95277 | 19.27243 | 230° | 93km/h | 1468m | 12.2m/s | -51.7°C | 0% | 54.1hPa | 2.2V | 00:00:00 | 00:00:00 | 00:00:00 | |
| AA1-15 | 2026-09-01 00:22:04 | 54.95330 | 19.27295 | 210° | 99km/h | 1488m | 8.7m/s | -51.6°C | 0% | 54.2hPa | 2.2V | 00:00:00 | 00:00:00 | 00:00:00 | |
| AA1-15 | 2026-09-01 00:22:02 | 54.95349 | 19.27314 | 207° | 95km/h | 1498m | 9.1m/s | -51.6°C | 0% | 54.2hPa | 2.2V | 00:00:00 | 00:00:00 | 00:00:00 | |
| AA1-15 | 2026-09-01 00:22:01 | 54.95377 | 19.27330 | 198° | 100km/h | 1526m | 9.9m/s | -51.6°C | 0% | 54.3hPa | 2.2V | 00:00:00 | 00:00:00 | 00:00:00 | |
| AA1-15 | 2026-09-01 00:22:00 | 54.95425 | 19.27347 | 190° | 102km/h | 1583m | 14.6m/s | -51.6°C | 0% | 54.3hPa | 2.2V | 00:00:00 | 00:00:00 | 00:00:00 | |
| AA1-15 | 2026-09-01 00:21:59 | 54.95479 | 19.27363 | 187° | 22km/h | 1655m | 51.5m/s | -51.5°C | 0% | 54.4hPa | 2.2V | 00:00:00 | 00:00:00 | 00:00:00 | |
| AA1-15 | 2026-09-01 00:21:58 | 54.95491 | 19.27359 | 122° | 18km/h | 1545m | 46.6m/s | -51.5°C | 0% | 54.4hPa | 2.2V | 00:00:00 | 00:00:00 | 00:00:00 | |
| AA1-15 | 2026-09-01 00:21:56 | 54.95534 | 19.27340 | 156° | 82km/h | 1410m | 16.5m/s | -51.5°C | 0% | 54.6hPa | 2.2V | 00:00:00 | 00:00:00 | 00:00:00 | |
| AA1-15 | 2026-09-01 00:21:54 | 54.95557 | 19.27322 | 155° | 99km/h | 1394m | 12.2m/s | -51.5°C | 0% | 54.6hPa | 2.2V | 00:00:00 | 00:00:00 | 00:00:00 | |
| AA1-15 | 2026-09-01 00:21:53 | 54.95572 | 19.27298 | 145° | 93km/h | 1384m | 9.8m/s | -51.5°C | 0% | 54.6hPa | 2.2V | 00:00:00 | 00:00:00 | 00:00:00 | |
| AA1-15 | 2026-09-01 00:21:51 | 54.95589 | 19.27276 | 139° | 99km/h | 1373m | 9.1m/s | -51.5°C | 0% | 54.7hPa | 2.2V | 00:00:00 | 00:00:00 | 00:00:00 | |
| AA1-15 | 2026-09-01 00:21:50 | 54.95611 | 19.27246 | 130° | 91km/h | 1367m | 10.1m/s | -51.4°C | 0% | 54.8hPa | 2.2V | 00:00:00 | 00:00:00 | 00:00:00 | |
| AA1-15 | 2026-09-01 00:21:49 | 54.95630 | 19.27215 | 124° | 91km/h | 1359m | 10.7m/s | -51.4°C | 0% | 54.8hPa | 2.2V | 00:00:00 | 00:00:00 | 00:00:00 | |
| AA1-15 | 2026-09-01 00:21:48 | 54.95663 | 19.27140 | 114° | 97km/h | 1353m | 9.1m/s | -51.4°C | 0% | 54.9hPa | 2.2V | 00:00:00 | 00:00:00 | 00:00:00 | |
| AA1-15 | 2026-09-01 00:21:46 | 54.95676 | 19.27097 | 109° | 97km/h | 1353m | 8.4m/s | -51.4°C | 0% | 54.9hPa | 2.2V | 00:00:00 | 00:00:00 | 00:00:00 | |
| AA1-15 | 2026-09-01 00:21:45 | 54.95688 | 19.27017 | 98° | 97km/h | 1341m | 8.6m/s | -51.3°C | 0% | 55hPa | 2.2V | 00:00:00 | 00:00:00 | 00:00:00 | |
| AA1-15 | 2026-09-01 00:21:44 | 54.95690 | 19.26976 | 92° | 97km/h | 1342m | 9.3m/s | -51.3°C | 0% | 55hPa | 2.2V | 00:00:00 | 00:00:00 | 00:00:00 | |
| AA1-15 | 2026-09-01 00:21:42 | 54.95681 | 19.26890 | 76° | 99km/h | 1323m | 9.9m/s | -51.2°C | 0% | 55.1hPa | 2.2V | 00:00:00 | 00:00:00 | 00:00:00 | |
| AA1-15 | 2026-09-01 00:21:41 | 54.95670 | 19.26843 | 72° | 95km/h | 1298m | 9.9m/s | -51.2°C | 0% | 55.2hPa | 2.2V | 00:00:00 | 00:00:00 | 00:00:00 | |
| AA1-15 | 2026-09-01 00:21:39 | 54.95661 | 19.26798 | 69° | 91km/h | 1278m | 8.6m/s | -51.2°C | 0% | 55.2hPa | 2.2V | 00:00:00 | 00:00:00 | 00:00:00 | |
| AA1-15 | 2026-09-01 00:21:38 | 54.95654 | 19.26756 | 61° | 95km/h | 1266m | 9.7m/s | -51.3°C | 0% | 55.2hPa | 2.2V | 00:00:00 | 00:00:00 | 00:00:00 | |
| AA1-15 | 2026-09-01 00:21:36 | 54.95621 | 19.26692 | 49° | 95km/h | 1252m | 8.9m/s | -51.3°C | 0% | 55.3hPa | 2.2V | 00:00:00 | 00:00:00 | 00:00:00 | |
| AA1-15 | 2026-09-01 00:21:35 | 54.95598 | 19.26665 | 42° | 102km/h | 1245m | 15.2m/s | -51.4°C | 0% | 55.4hPa | 2.2V | 00:00:00 | 00:00:00 | 00:00:00 | |
| AA1-15 | 2026-09-01 00:21:34 | 54.95549 | 19.26616 | 30° | 97km/h | 1211m | 8.6m/s | -51.4°C | 0% | 55.5hPa | 2.2V | 00:00:00 | 00:00:00 | 00:00:00 | |
| AA1-15 | 2026-09-01 00:21:32 | 54.95479 | 19.26572 | 13° | 99km/h | 1183m | 8.6m/s | -51.6°C | 0% | 55.6hPa | 2.2V | 00:00:00 | 00:00:00 | 00:00:00 | |
| AA1-15 | 2026-09-01 00:21:30 | 54.95458 | 19.26565 | 6° | 93km/h | 1177m | 8.5m/s | -51.6°C | 0% | 55.6hPa | 2.2V | 00:00:00 | 00:00:00 | 00:00:00 | |
| AA1-15 | 2026-09-01 00:21:27 | 54.95412 | 19.26563 | 360° | 95km/h | 1160m | 8.8m/s | -51.6°C | 0% | 55.7hPa | 2.2V | 00:00:00 | 00:00:00 | 00:00:00 | |
| AA1-15 | 2026-09-01 00:21:26 | 54.95388 | 19.26563 | 0° | 100km/h | 1152m | 8.6m/s | -51.6°C | 0% | 55.8hPa | 2.2V | 00:00:00 | 00:00:00 | 00:00:00 | |
| AA1-15 | 2026-09-01 00:21:24 | 54.95339 | 19.26561 | 0° | 100km/h | 1131m | 8m/s | -51.6°C | 0% | 55.9hPa | 2.2V | 00:00:00 | 00:00:00 | 00:00:00 | |
| AA1-15 | 2026-09-01 00:21:23 | 54.95290 | 19.26561 | 0° | 102km/h | 1107m | 8.6m/s | -51.7°C | 0% | 55.9hPa | 2.2V | 00:00:00 | 00:00:00 | 00:00:00 | |
| AA1-15 | 2026-09-01 00:21:22 | 54.95266 | 19.26561 | 0° | 93km/h | 1094m | 8.2m/s | -51.7°C | 0% | 56hPa | 2.2V | 00:00:00 | 00:00:00 | 00:00:00 | |
| AA1-15 | 2026-09-01 00:21:20 | 54.95034 | 19.26576 | 360° | 102km/h | 982m | 9.1m/s | -51.4°C | 0% | 56.4hPa | 2.2V | 00:00:00 | 00:00:00 | 00:00:00 | |
| AA1-15 | 2026-09-01 00:21:16 | 54.95010 | 19.26580 | 359° | 97km/h | 968m | 11.4m/s | -51.3°C | 0% | 56.5hPa | 2.2V | 00:00:00 | 00:00:00 | 00:00:00 | |
| AA1-15 | 2026-09-01 00:21:11 | 54.94986 | 19.26581 | 7° | 99km/h | 953m | 9.2m/s | -51.3°C | 0% | 56.5hPa | 2.2V | 00:00:00 | 00:00:00 | 00:00:00 | |
| AA1-15 | 2026-09-01 00:21:08 | 54.94943 | 19.26543 | 43° | 100km/h | 926m | 9.2m/s | -51.2°C | 0% | 56.6hPa | 2.2V | 00:00:00 | 00:00:00 | 00:00:00 | |
| AA1-15 | 2026-09-01 00:21:05 | 54.94903 | 19.26459 | 80° | 97km/h | 919m | 11m/s | -51.1°C | 0% | 56.7hPa | 2.2V | 00:00:00 | 00:00:00 | 00:00:00 | |
| AA1-15 | 2026-09-01 00:21:04 | 54.94895 | 19.26414 | 98° | 91km/h | 909m | 10.3m/s | -51.1°C | 0% | 56.7hPa | 2.2V | 00:00:00 | 00:00:00 | 00:00:00 | |
| AA1-15 | 2026-09-01 00:21:03 | 54.94900 | 19.26371 | 114° | 97km/h | 896m | 10.5m/s | -51.1°C | 0% | 56.8hPa | 2.2V | 00:00:00 | 00:00:00 | 00:00:00 | |
| AA1-15 | 2026-09-01 00:21:01 | 54.94929 | 19.26310 | 153° | 97km/h | 828m | 10.4m/s | -51°C | 0% | 56.9hPa | 2.2V | 00:00:00 | 00:00:00 | 00:00:00 | |
| AA1-15 | 2026-09-01 00:21:00 | 54.94942 | 19.26297 | 169° | 97km/h | 767m | 9.8m/s | -51°C | 0% | 56.9hPa | 2.2V | 00:00:00 | 00:00:00 | 00:00:00 | |
| AA1-15 | 2026-09-01 00:20:59 | 54.94953 | 19.26310 | 189° | 89km/h | 710m | 6.7m/s | -51°C | 0% | 57hPa | 2.2V | 00:00:00 | 00:00:00 | 00:00:00 | |
| AA1-15 | 2026-09-01 00:20:57 | 54.94980 | 19.26320 | 225° | 95km/h | 738m | 4.3m/s | -50.9°C | 0% | 57hPa | 2.2V | 00:00:00 | 00:00:00 | 00:00:00 | |
| AA1-15 | 2026-09-01 00:20:56 | 54.94997 | 19.26336 | 241° | 93km/h | 771m | 5.2m/s | -50.9°C | 0% | 57.1hPa | 2.2V | 00:00:00 | 00:00:00 | 00:00:00 | |
| AA1-15 | 2026-09-01 00:20:55 | 54.95008 | 19.26361 | 264° | 93km/h | 800m | 6.4m/s | -50.9°C | 0% | 57.1hPa | 2.2V | 00:00:00 | 00:00:00 | 00:00:00 | |
| AA1-15 | 2026-09-01 00:20:54 | 55.08504 | 19.74141 | 0° | 0km/h | 159087m | 0m/s | -50.9°C | 0% | 57.2hPa | 2.2V | 00:00:00 | 00:00:00 | 00:00:00 | |
| AA1-15 | 2026-09-01 00:20:42 | 55.08504 | 19.74141 | 0° | 0km/h | 159087m | 0m/s | -51.3°C | 0% | 57.7hPa | 2.2V | 00:00:00 | 00:00:00 | 00:00:00 | |
| AA1-15 | 2026-09-01 00:20:31 | 55.08293 | 19.73557 | 58° | 135km/h | 3947m | 132.3m/s | -51.4°C | 0% | 58.2hPa | 2.2V | 00:00:00 | 00:00:00 | 00:00:00 | |
| AA1-15 | 2026-09-01 00:20:21 | 55.08226 | 19.72869 | 214° | 37km/h | 2640m | 6.8m/s | -51.5°C | 0% | 58.7hPa | 2.2V | 00:00:00 | 00:00:00 | 00:00:00 | |
| AA1-15 | 2026-09-01 00:20:10 | 55.08282 | 19.72943 | 300° | 13km/h | 2605m | 9.4m/s | -51.5°C | 0% | 59.2hPa | 2.2V | 00:00:00 | 00:00:00 | 00:00:00 | |
| AA1-15 | 2026-09-01 00:19:59 | 55.08287 | 19.73024 | 279° | 13km/h | 2527m | 8.6m/s | -51.4°C | 0% | 59.7hPa | 2.2V | 00:00:00 | 00:00:00 | 00:00:00 | |
| AA1-15 | 2026-09-01 00:19:48 | 55.08262 | 19.73087 | 276° | 16km/h | 2394m | 8.4m/s | -51.1°C | 0% | 60.2hPa | 2.2V | 00:00:00 | 00:00:00 | 00:00:00 | |
| AA1-15 | 2026-09-01 00:19:37 | 55.08255 | 19.73149 | 282° | 13km/h | 2294m | 9m/s | -51.1°C | 0% | 60.8hPa | 2.2V | 00:00:00 | 00:00:00 | 00:00:00 | |
| AA1-15 | 2026-09-01 00:19:27 | 55.08257 | 19.73222 | 274° | 15km/h | 2191m | 8.6m/s | -50.9°C | 0% | 61.3hPa | 2.2V | 00:00:00 | 00:00:00 | 00:00:00 | |
| AA1-15 | 2026-09-01 00:19:17 | 55.08247 | 19.73290 | 274° | 13km/h | 2129m | 8.4m/s | -50.8°C | 0% | 61.8hPa | 2.2V | 00:00:00 | 00:00:00 | 00:00:00 | |
| AA1-15 | 2026-09-01 00:19:05 | 55.08260 | 19.73360 | 255° | 13km/h | 2141m | 8.1m/s | -50.4°C | 0% | 62.4hPa | 2.2V | 00:00:00 | 00:00:00 | 00:00:00 | |
| AA1-15 | 2026-09-01 00:18:55 | 55.08238 | 19.73404 | 269° | 16km/h | 1999m | 8.6m/s | -50.2°C | 0% | 62.9hPa | 2.2V | 00:00:00 | 00:00:00 | 00:00:00 | |
| AA1-15 | 2026-09-01 00:18:53 | 55.08251 | 19.73417 | 273° | 13km/h | 1997m | 7.8m/s | -50.3°C | 0% | 62.9hPa | 2.2V | 00:00:00 | 00:00:00 | 00:00:00 | |
| AA1-15 | 2026-09-01 00:18:52 | 55.08250 | 19.73422 | 274° | 13km/h | 1994m | 8.3m/s | -50.4°C | 0% | 63hPa | 2.2V | 00:00:00 | 00:00:00 | 00:00:00 | |
| AA1-15 | 2026-09-01 00:18:50 | 55.08253 | 19.73435 | 270° | 16km/h | 1992m | 8.2m/s | -50.7°C | 0% | 63.1hPa | 2.2V | 00:00:00 | 00:00:00 | 00:00:00 | |
| AA1-15 | 2026-09-01 00:18:49 | 55.08254 | 19.73442 | 263° | 13km/h | 1998m | 8m/s | -50.8°C | 0% | 63.1hPa | 2.2V | 00:00:00 | 00:00:00 | 00:00:00 | |
| AA1-15 | 2026-09-01 00:18:45 | 55.08268 | 19.73485 | 267° | 13km/h | 2034m | 7.9m/s | -50.9°C | 0% | 63.4hPa | 2.2V | 00:00:00 | 00:00:00 | 00:00:00 | |
| AA1-15 | 2026-09-01 00:18:34 | 55.08248 | 19.73535 | 328° | 15km/h | 2108m | 8.5m/s | -51.2°C | 0% | 63.9hPa | 2.2V | 00:00:00 | 00:00:00 | 00:00:00 | |
| AA1-15 | 2026-09-01 00:18:24 | 55.08246 | 19.73513 | 274° | 15km/h | 1998m | 8.8m/s | -51.1°C | 0% | 64.4hPa | 2.2V | 00:00:00 | 00:00:00 | 00:00:00 | |
| AA1-15 | 2026-09-01 00:18:22 | 55.08257 | 19.73513 | 267° | 11km/h | 1953m | 9.1m/s | -51°C | 0% | 64.5hPa | 2.2V | 00:00:00 | 00:00:00 | 00:00:00 | |
| AA1-15 | 2026-09-01 00:18:21 | 55.08259 | 19.73519 | 272° | 11km/h | 1939m | 10.2m/s | -51°C | 0% | 64.6hPa | 2.2V | 00:00:00 | 00:00:00 | 00:00:00 | |
| AA1-15 | 2026-09-01 00:18:19 | 55.08254 | 19.73537 | 268° | 13km/h | 1910m | 8.6m/s | -51°C | 0% | 64.7hPa | 2.2V | 00:00:00 | 00:00:00 | 00:00:00 | |
| AA1-15 | 2026-09-01 00:18:18 | 55.08253 | 19.73547 | 266° | 15km/h | 1891m | 8.9m/s | -51°C | 0% | 64.7hPa | 2.2V | 00:00:00 | 00:00:00 | 00:00:00 | |
| AA1-15 | 2026-09-01 00:18:17 | 55.08244 | 19.73562 | 312° | 33km/h | 1874m | 3.7m/s | -51.1°C | 0% | 64.8hPa | 2.2V | 00:00:00 | 00:00:00 | 00:00:00 | |
| AA1-15 | 2026-09-01 00:18:15 | 55.08226 | 19.73600 | 330° | 73km/h | 1846m | 10.9m/s | -51.1°C | 0% | 64.9hPa | 2.2V | 00:00:00 | 00:00:00 | 00:00:00 | |
| AA1-15 | 2026-09-01 00:18:14 | 55.08214 | 19.73628 | 315° | 99km/h | 1836m | 12.4m/s | -51.1°C | 0% | 64.9hPa | 2.2V | 00:00:00 | 00:00:00 | 00:00:00 | |
| AA1-15 | 2026-09-01 00:18:13 | 55.08203 | 19.73664 | 269° | 95km/h | 1824m | 8.3m/s | -51.1°C | 0% | 65hPa | 2.2V | 00:00:00 | 00:00:00 | 00:00:00 | |
| AA1-15 | 2026-09-01 00:18:11 | 55.08208 | 19.73750 | 254° | 97km/h | 1804m | 8m/s | -51.2°C | 0% | 65.1hPa | 2.2V | 00:00:00 | 00:00:00 | 00:00:00 | |
| AA1-15 | 2026-09-01 00:18:10 | 55.08215 | 19.73793 | 248° | 95km/h | 1792m | 8.1m/s | -51.2°C | 0% | 65.1hPa | 2.2V | 00:00:00 | 00:00:00 | 00:00:00 | |
| AA1-15 | 2026-09-01 00:18:08 | 55.08231 | 19.73874 | 238° | 93km/h | 1763m | 8m/s | -51.2°C | 0% | 65.2hPa | 2.2V | 00:00:00 | 00:00:00 | 00:00:00 | |
| AA1-15 | 2026-09-01 00:18:07 | 55.08242 | 19.73913 | 233° | 95km/h | 1746m | 8.2m/s | -51.2°C | 0% | 65.3hPa | 2.2V | 00:00:00 | 00:00:00 | 00:00:00 | |
| AA1-15 | 2026-09-01 00:18:06 | 55.08260 | 19.73951 | 215° | 110km/h | 1730m | 2.9m/s | -51.2°C | 0% | 65.3hPa | 2.2V | 00:00:00 | 00:00:00 | 00:00:00 | |
| AA1-15 | 2026-09-01 00:18:04 | 55.08318 | 19.74003 | 200° | 148km/h | 1726m | -2.2m/s | -51.2°C | 0% | 65.5hPa | 2.2V | 00:00:00 | 00:00:00 | 00:00:00 | |
| AA1-15 | 2026-09-01 00:18:03 | 55.08344 | 19.74021 | 208° | 102km/h | 1726m | 2.1m/s | -51.2°C | 0% | 65.5hPa | 2.2V | 00:00:00 | 00:00:00 | 00:00:00 | |
| AA1-15 | 2026-09-01 00:18:02 | 55.08360 | 19.74035 | 201° | 99km/h | 1714m | 6.6m/s | -51.3°C | 0% | 65.5hPa | 2.2V | 00:00:00 | 00:00:00 | 00:00:00 | |
| AA1-15 | 2026-09-01 00:18:00 | 55.08397 | 19.74057 | 189° | 95km/h | 1674m | 8.3m/s | -51.3°C | 0% | 65.6hPa | 2.2V | 00:00:00 | 00:00:00 | 00:00:00 | |
| AA1-15 | 2026-09-01 00:17:59 | 55.08417 | 19.74060 | 181° | 99km/h | 1653m | 8.3m/s | -51.4°C | 0% | 65.7hPa | 2.2V | 00:00:00 | 00:00:00 | 00:00:00 | |
| AA1-15 | 2026-09-01 00:17:57 | 55.08462 | 19.74054 | 170° | 99km/h | 1616m | 8.7m/s | -51.4°C | 0% | 65.8hPa | 2.2V | 00:00:00 | 00:00:00 | 00:00:00 | |
| AA1-15 | 2026-09-01 00:17:56 | 55.08478 | 19.74041 | 165° | 100km/h | 1590m | 7.6m/s | -51.4°C | 0% | 65.8hPa | 2.2V | 00:00:00 | 00:00:00 | 00:00:00 | |
| AA1-15 | 2026-09-01 00:17:55 | 55.08493 | 19.74025 | 159° | 99km/h | 1558m | 7.8m/s | -51.4°C | 0% | 65.9hPa | 2.2V | 00:00:00 | 00:00:00 | 00:00:00 | |
| AA1-15 | 2026-09-01 00:17:53 | 55.08525 | 19.73986 | 144° | 95km/h | 1502m | 9.6m/s | -51.4°C | 0% | 66hPa | 2.2V | 00:00:00 | 00:00:00 | 00:00:00 | |
| AA1-15 | 2026-09-01 00:17:52 | 55.08547 | 19.73969 | 139° | 97km/h | 1483m | 9.6m/s | -51.4°C | 0% | 66.1hPa | 2.2V | 00:00:00 | 00:00:00 | 00:00:00 | |
| AA1-15 | 2026-09-01 00:17:51 | 55.08570 | 19.73943 | 131° | 93km/h | 1477m | 8.2m/s | -51.3°C | 0% | 66.1hPa | 2.2V | 00:00:00 | 00:00:00 | 00:00:00 | |
| AA1-15 | 2026-09-01 00:17:49 | 55.08606 | 19.73881 | 118° | 95km/h | 1465m | 8.7m/s | -51.3°C | 0% | 66.2hPa | 2.2V | 00:00:00 | 00:00:00 | 00:00:00 | |
| AA1-15 | 2026-09-01 00:17:48 | 55.08611 | 19.73842 | 113° | 93km/h | 1450m | 9.1m/s | -51.3°C | 0% | 66.3hPa | 2.2V | 00:00:00 | 00:00:00 | 00:00:00 | |
| AA1-15 | 2026-09-01 00:17:46 | 55.08615 | 19.73759 | 104° | 99km/h | 1412m | 9.4m/s | -51.2°C | 0% | 66.4hPa | 2.2V | 00:00:00 | 00:00:00 | 00:00:00 | |
| AA1-15 | 2026-09-01 00:17:45 | 55.08616 | 19.73715 | 97° | 100km/h | 1401m | 8.4m/s | -51.2°C | 0% | 66.4hPa | 2.2V | 00:00:00 | 00:00:00 | 00:00:00 | |
| AA1-15 | 2026-09-01 00:17:44 | 55.08615 | 19.73672 | 94° | 97km/h | 1392m | 7.1m/s | -51.2°C | 0% | 66.5hPa | 2.2V | 00:00:00 | 00:00:00 | 00:00:00 | |
| AA1-15 | 2026-09-01 00:17:42 | 55.08608 | 19.73586 | 77° | 99km/h | 1366m | 8.2m/s | -51.2°C | 0% | 66.6hPa | 2.2V | 00:00:00 | 00:00:00 | 00:00:00 | |
| AA1-15 | 2026-09-01 00:17:41 | 55.08602 | 19.73544 | 74° | 95km/h | 1356m | 8m/s | -51.1°C | 0% | 66.6hPa | 2.2V | 00:00:00 | 00:00:00 | 00:00:00 | |
| AA1-15 | 2026-09-01 00:17:40 | 55.08596 | 19.73505 | 69° | 91km/h | 1345m | 8.1m/s | -51.1°C | 0% | 66.7hPa | 2.2V | 00:00:00 | 00:00:00 | 00:00:00 | |
| AA1-15 | 2026-09-01 00:17:38 | 55.08571 | 19.73427 | 55° | 99km/h | 1325m | 8.1m/s | -51.1°C | 0% | 66.8hPa | 2.2V | 00:00:00 | 00:00:00 | 00:00:00 | |
| AA1-15 | 2026-09-01 00:17:36 | 55.08538 | 19.73359 | 42° | 97km/h | 1304m | 8.2m/s | -51°C | 0% | 66.9hPa | 2.2V | 00:00:00 | 00:00:00 | 00:00:00 | |
| AA1-15 | 2026-09-01 00:17:35 | 55.08523 | 19.73331 | 36° | 91km/h | 1294m | 7.8m/s | -51°C | 0% | 67hPa | 2.2V | 00:00:00 | 00:00:00 | 00:00:00 | |
| AA1-15 | 2026-09-01 00:17:34 | 55.08509 | 19.73310 | 30° | 97km/h | 1284m | 7.8m/s | -51°C | 0% | 67hPa | 2.2V | 00:00:00 | 00:00:00 | 00:00:00 | |
| AA1-15 | 2026-09-01 00:17:33 | 55.08490 | 19.73289 | 26° | 99km/h | 1273m | 8m/s | -50.9°C | 0% | 67.1hPa | 2.2V | 00:00:00 | 00:00:00 | 00:00:00 | |
| AA1-15 | 2026-09-01 00:17:31 | 55.08508 | 19.73294 | 11° | 97km/h | 1345m | 8m/s | -50.9°C | 0% | 67.2hPa | 2.2V | 00:00:00 | 00:00:00 | 00:00:00 | |
| AA1-15 | 2026-09-01 00:17:25 | 55.11827 | 19.74307 | 0° | 0km/h | 159087m | 0m/s | -50.7°C | 0% | 67.5hPa | 2.2V | 00:00:00 | 00:00:00 | 00:00:00 | |
| AA1-15 | 2026-09-01 00:17:15 | 55.18929 | 19.81311 | 352° | 411km/h | 159087m | 136m/s | -50.2°C | 0% | 68hPa | 2.2V | 00:00:00 | 00:00:00 | 00:00:00 | |
| AA1-15 | 2026-09-01 00:17:04 | 55.17726 | 19.81361 | 0° | 95km/h | 159087m | 80.5m/s | -50°C | 0% | 68.6hPa | 2.2V | 00:00:00 | 00:00:00 | 00:00:00 | |
| AA1-15 | 2026-09-01 00:16:52 | 55.17670 | 19.81815 | 265° | 108km/h | 159087m | 7.9m/s | -50.2°C | 0% | 69.3hPa | 2.2V | 00:00:00 | 00:00:00 | 00:00:00 | |
| AA1-15 | 2026-09-01 00:16:42 | 55.17655 | 19.82272 | 265° | 110km/h | 6487m | 7.4m/s | -50.6°C | 0% | 69.9hPa | 2.2V | 00:00:00 | 00:00:00 | 00:00:00 | |
| AA1-15 | 2026-09-01 00:16:30 | 54.92017 | 19.89503 | 0° | 0km/h | 159087m | 0m/s | -50.8°C | 0% | 70.5hPa | 2.2V | 00:00:00 | 00:00:00 | 00:00:00 | |
| AA1-15 | 2026-09-01 00:16:19 | 54.92143 | 19.89596 | 203° | 49km/h | 2617m | 9.8m/s | -50.7°C | 0% | 71.1hPa | 2.2V | 00:00:00 | 00:00:00 | 00:00:00 | |
| AA1-15 | 2026-09-01 00:16:08 | 54.92146 | 19.89677 | 253° | 15km/h | 2564m | 7.4m/s | -50.3°C | 0% | 71.7hPa | 2.2V | 00:00:00 | 00:00:00 | 00:00:00 | |
| AA1-15 | 2026-09-01 00:15:57 | 54.92151 | 19.89731 | 267° | 16km/h | 2509m | 8m/s | -50°C | 0% | 72.3hPa | 2.2V | 00:00:00 | 00:00:00 | 00:00:00 | |
| AA1-15 | 2026-09-01 00:15:46 | 54.92095 | 19.89765 | 273° | 11km/h | 2368m | 8.4m/s | -50.2°C | 0% | 72.8hPa | 2.2V | 00:00:00 | 00:00:00 | 00:00:00 | |
| AA1-15 | 2026-09-01 00:15:36 | 54.92131 | 19.89869 | 262° | 13km/h | 2285m | 7.5m/s | -50.5°C | 0% | 73.4hPa | 2.2V | 00:00:00 | 00:00:00 | 00:00:00 | |
| AA1-15 | 2026-09-01 00:15:24 | 54.92117 | 19.89921 | 275° | 15km/h | 2186m | 8.8m/s | -50.6°C | 0% | 74hPa | 2.2V | 00:00:00 | 00:00:00 | 00:00:00 | |
| AA1-15 | 2026-09-01 00:15:14 | 54.92125 | 19.89995 | 270° | 16km/h | 2102m | 8.4m/s | -50.6°C | 0% | 74.6hPa | 2.2V | 00:00:00 | 00:00:00 | 00:00:00 | |
| AA1-15 | 2026-09-01 00:15:03 | 54.92140 | 19.90067 | 276° | 20km/h | 2032m | 8.1m/s | -50.7°C | 0% | 75.3hPa | 2.2V | 00:00:00 | 00:00:00 | 00:00:00 | |
| AA1-15 | 2026-09-01 00:14:51 | 54.92139 | 19.90144 | 266° | 13km/h | 1995m | 7.8m/s | -51.1°C | 0.1% | 75.9hPa | 2.2V | 00:00:00 | 00:00:00 | 00:00:00 | |
| AA1-15 | 2026-09-01 00:14:50 | 54.92128 | 19.90158 | 274° | 13km/h | 1968m | 8.6m/s | -51°C | 0% | 76hPa | 2.2V | 00:00:00 | 00:00:00 | 00:00:00 | |
| AA1-15 | 2026-09-01 00:14:47 | 54.92122 | 19.90181 | 291° | 15km/h | 1931m | 9.7m/s | -51°C | 0% | 76.2hPa | 2.2V | 00:00:00 | 00:00:00 | 00:00:00 | |
| AA1-15 | 2026-09-01 00:14:45 | 54.92126 | 19.90195 | 285° | 13km/h | 1912m | 9m/s | -50.9°C | 0.1% | 76.3hPa | 2.2V | 00:00:00 | 00:00:00 | 00:00:00 | |
| AA1-15 | 2026-09-01 00:14:42 | 54.92131 | 19.90206 | 269° | 13km/h | 1878m | 8.5m/s | -50.8°C | 0.1% | 76.4hPa | 2.2V | 00:00:00 | 00:00:00 | 00:00:00 | |
| AA1-15 | 2026-09-01 00:14:40 | 54.92129 | 19.90209 | 239° | 22km/h | 1850m | 10.7m/s | -50.8°C | 0.1% | 76.5hPa | 2.2V | 00:00:00 | 00:00:00 | 00:00:00 | |
| AA1-15 | 2026-09-01 00:14:39 | 54.92127 | 19.90226 | 274° | 13km/h | 1831m | 8.3m/s | -50.7°C | 0.1% | 76.7hPa | 2.2V | 00:00:00 | 00:00:00 | 00:00:00 | |
| AA1-15 | 2026-09-01 00:14:37 | 54.92127 | 19.90234 | 269° | 16km/h | 1822m | 8.5m/s | -50.7°C | 0.1% | 76.7hPa | 2.2V | 00:00:00 | 00:00:00 | 00:00:00 | |
| AA1-15 | 2026-09-01 00:14:36 | 54.92124 | 19.90241 | 276° | 13km/h | 1810m | 8.4m/s | -50.6°C | 0.1% | 76.8hPa | 2.2V | 00:00:00 | 00:00:00 | 00:00:00 | |
| AA1-15 | 2026-09-01 00:14:35 | 54.92115 | 19.90252 | 272° | 13km/h | 1782m | 8.6m/s | -50.6°C | 0.1% | 76.9hPa | 2.2V | 00:00:00 | 00:00:00 | 00:00:00 | |
| AA1-15 | 2026-09-01 00:14:34 | 54.92102 | 19.90258 | 278° | 15km/h | 1762m | 8.7m/s | -50.5°C | 0.1% | 77hPa | 2.2V | 00:00:00 | 00:00:00 | 00:00:00 | |
| AA1-15 | 2026-09-01 00:14:33 | 54.92099 | 19.90263 | 283° | 13km/h | 1749m | 8.7m/s | -50.5°C | 0.1% | 77hPa | 2.2V | 00:00:00 | 00:00:00 | 00:00:00 | |
| AA1-15 | 2026-09-01 00:14:30 | 54.92102 | 19.90270 | 270° | 13km/h | 1730m | 8.6m/s | -50.4°C | 0.1% | 77.1hPa | 2.2V | 00:00:00 | 00:00:00 | 00:00:00 | |
| AA1-15 | 2026-09-01 00:14:29 | 54.92104 | 19.90274 | 270° | 13km/h | 1721m | 9.2m/s | -50.4°C | 0.1% | 77.2hPa | 2.2V | 00:00:00 | 00:00:00 | 00:00:00 | |
| AA1-15 | 2026-09-01 00:14:28 | 54.92100 | 19.90282 | 276° | 13km/h | 1700m | 10.2m/s | -50.4°C | 0.1% | 77.3hPa | 2.2V | 00:00:00 | 00:00:00 | 00:00:00 | |
| AA1-15 | 2026-09-01 00:14:26 | 54.92099 | 19.90290 | 276° | 11km/h | 1693m | 9.9m/s | -50.4°C | 0.1% | 77.4hPa | 2.2V | 00:00:00 | 00:00:00 | 00:00:00 | |
| AA1-15 | 2026-09-01 00:14:24 | 54.92106 | 19.90310 | 264° | 16km/h | 1685m | 7.8m/s | -50.3°C | 0.1% | 77.5hPa | 2.2V | 00:00:00 | 00:00:00 | 00:00:00 | |
| AA1-15 | 2026-09-01 00:14:23 | 54.92108 | 19.90310 | 272° | 13km/h | 1675m | 8.1m/s | -50.3°C | 0.1% | 77.5hPa | 2.2V | 00:00:00 | 00:00:00 | 00:00:00 | |
| AA1-15 | 2026-09-01 00:14:22 | 54.92113 | 19.90304 | 265° | 16km/h | 1660m | 8.6m/s | -50.3°C | 0.1% | 77.6hPa | 2.2V | 00:00:00 | 00:00:00 | 00:00:00 | |
| AA1-15 | 2026-09-01 00:14:21 | 54.92118 | 19.90298 | 255° | 11km/h | 1644m | 8.8m/s | -50.3°C | 0.2% | 77.7hPa | 2.2V | 00:00:00 | 00:00:00 | 00:00:00 | |
| AA1-15 | 2026-09-01 00:14:19 | 54.92123 | 19.90316 | 273° | 11km/h | 1623m | 8.9m/s | -50.3°C | 0.1% | 77.8hPa | 2.2V | 00:00:00 | 00:00:00 | 00:00:00 | |
| AA1-15 | 2026-09-01 00:14:17 | 54.92126 | 19.90349 | 267° | 15km/h | 1583m | 8.4m/s | -50.3°C | 0.1% | 78hPa | 2.2V | 00:00:00 | 00:00:00 | 00:00:00 | |
| AA1-15 | 2026-09-01 00:14:16 | 54.92119 | 19.90345 | 279° | 13km/h | 1556m | 9m/s | -50.4°C | 0.2% | 78hPa | 2.2V | 00:00:00 | 00:00:00 | 00:00:00 | |
| AA1-15 | 2026-09-01 00:14:14 | 54.92092 | 19.90328 | 273° | 29km/h | 1514m | 9.2m/s | -50.4°C | 0.2% | 78.1hPa | 2.2V | 00:00:00 | 00:00:00 | 00:00:00 | |
| AA1-15 | 2026-09-01 00:14:12 | 54.91975 | 19.90336 | 266° | 91km/h | 1351m | 11.3m/s | -50.4°C | 0.2% | 78.2hPa | 2.2V | 00:00:00 | 00:00:00 | 00:00:00 | |
| AA1-15 | 2026-09-01 00:14:10 | 54.91041 | 19.90559 | 195° | 104km/h | 159087m | 6.9m/s | -50.5°C | 0.2% | 78.3hPa | 2.2V | 00:00:00 | 00:00:00 | 00:00:00 | |
| AA1-15 | 2026-09-01 00:14:00 | 54.91495 | 19.90873 | 188° | 97km/h | 306m | 7.1m/s | -50.3°C | 0.2% | 78.9hPa | 2.2V | 00:00:00 | 00:00:00 | 00:00:00 | |
| AA1-15 | 2026-09-01 00:13:59 | 54.91362 | 19.90886 | 181° | 102km/h | 85m | 7.2m/s | -50.3°C | 0.2% | 79hPa | 2.2V | 00:00:00 | 00:00:00 | 00:00:00 | |
| AA1-15 | 2026-09-01 00:13:55 | 54.91943 | 19.91982 | 56° | 891km/h | 159087m | 11.9m/s | -50.1°C | 0.2% | 79.3hPa | 2.2V | 00:00:00 | 00:00:00 | 00:00:00 | |
| AA1-15 | 2026-09-01 00:13:44 | 54.90845 | 19.89530 | 55° | 93km/h | 159087m | 8m/s | -49.8°C | 0.3% | 79.9hPa | 2.2V | 00:00:00 | 00:00:00 | 00:00:00 | |
| AA1-15 | 2026-09-01 00:13:34 | 54.98665 | 20.14115 | 0° | 0km/h | 159087m | 0m/s | -50.1°C | 0.2% | 80.5hPa | 2.2V | 00:00:00 | 00:00:00 | 00:00:00 | |
| AA1-15 | 2026-09-01 00:13:24 | 54.98665 | 20.14115 | 0° | 0km/h | 159087m | 0m/s | -50.2°C | 0.3% | 81.1hPa | 2.2V | 00:00:00 | 00:00:00 | 00:00:00 | |
| AA1-15 | 2026-09-01 00:13:13 | 54.98665 | 20.14115 | 0° | 0km/h | 159087m | 0m/s | -49.9°C | 0.3% | 81.8hPa | 2.2V | 00:00:00 | 00:00:00 | 00:00:00 | |
| AA1-15 | 2026-09-01 00:13:02 | 54.98665 | 20.14115 | 0° | 0km/h | 159087m | 0m/s | -49.8°C | 0.4% | 82.5hPa | 2.2V | 00:00:00 | 00:00:00 | 00:00:00 | |
| AA1-15 | 2026-09-01 00:12:52 | 54.98665 | 20.14115 | 0° | 0km/h | 159087m | 0m/s | -49.8°C | 0.3% | 83.1hPa | 2.2V | 00:00:00 | 00:00:00 | 00:00:00 | |
| AA1-15 | 2026-09-01 00:12:41 | 54.98665 | 20.14115 | 0° | 0km/h | 159087m | 0m/s | -49.6°C | 0.3% | 83.8hPa | 2.2V | 00:00:00 | 00:00:00 | 00:00:00 | |
| AA1-15 | 2026-09-01 00:12:31 | 54.98665 | 20.14115 | 0° | 0km/h | 159087m | 0m/s | -49.4°C | 0.3% | 84.4hPa | 2.2V | 00:00:00 | 00:00:00 | 00:00:00 | |
| AA1-15 | 2026-09-01 00:12:20 | 54.98652 | 20.14177 | 290° | 15km/h | 159087m | 7.6m/s | -49.9°C | 0.3% | 85.1hPa | 2.2V | 00:00:00 | 00:00:00 | 00:00:00 | |
| AA1-15 | 2026-09-01 00:12:09 | 54.98636 | 20.14255 | 295° | 16km/h | 8492m | 7.4m/s | -49.9°C | 0.4% | 85.8hPa | 2.2V | 00:00:00 | 00:00:00 | 00:00:00 | |
| AA1-15 | 2026-09-01 00:11:58 | 54.98634 | 20.14313 | 274° | 18km/h | 159087m | 7.4m/s | -49.7°C | 0.5% | 86.5hPa | 2.2V | 00:00:00 | 00:00:00 | 00:00:00 | |
| AA1-15 | 2026-09-01 00:11:48 | 54.98642 | 20.14387 | 280° | 18km/h | 8363m | 9.2m/s | -49.6°C | 0.5% | 87.1hPa | 2.2V | 00:00:00 | 00:00:00 | 00:00:00 | |
| AA1-15 | 2026-09-01 00:11:38 | 54.98634 | 20.14447 | 291° | 16km/h | 8298m | 7.6m/s | -49.6°C | 0.5% | 87.8hPa | 2.2V | 00:00:00 | 00:00:00 | 00:00:00 | |
| AA1-15 | 2026-09-01 00:11:26 | 54.98616 | 20.14542 | 240° | 18km/h | 8176m | 4.7m/s | -49.3°C | 0.5% | 88.5hPa | 2.2V | 00:00:00 | 00:00:00 | 00:00:00 | |
| AA1-15 | 2026-09-01 00:11:16 | 54.98624 | 20.14594 | 260° | 16km/h | 8117m | 7.4m/s | -49.2°C | 0.6% | 89.2hPa | 2.2V | 00:00:00 | 00:00:00 | 00:00:00 | |
| AA1-15 | 2026-09-01 00:11:05 | 54.98640 | 20.14695 | 280° | 16km/h | 8086m | 6.7m/s | -49.2°C | 0.7% | 90hPa | 2.2V | 00:00:00 | 00:00:00 | 00:00:00 | |
| AA1-15 | 2026-09-01 00:10:54 | 54.98628 | 20.14741 | 278° | 16km/h | 159087m | 6.9m/s | -48.9°C | 0.7% | 90.7hPa | 2.2V | 00:00:00 | 00:00:00 | 00:00:00 | |
| AA1-15 | 2026-09-01 00:10:44 | 54.85727 | 20.03808 | 0° | 0km/h | 159087m | 0m/s | -48.5°C | 0.8% | 91.4hPa | 2.2V | 00:00:00 | 00:00:00 | 00:00:00 | |
| AA1-15 | 2026-09-01 00:10:34 | 54.85727 | 20.03808 | 0° | 0km/h | 159087m | 0m/s | -48.3°C | 0.8% | 92.1hPa | 2.2V | 00:00:00 | 00:00:00 | 00:00:00 | |
| AA1-15 | 2026-09-01 00:10:23 | 54.85727 | 20.03808 | 0° | 0km/h | 159087m | 0m/s | -47.9°C | 0.8% | 92.8hPa | 2.2V | 00:00:00 | 00:00:00 | 00:00:00 |